<?xml version='1.0' encoding='UTF-8'?>
<gpx version="1.1" creator="https://www.komoot.de" xmlns="http://www.topografix.com/GPX/1/1" xmlns:xsi="http://www.w3.org/2001/XMLSchema-instance" xsi:schemaLocation="http://www.topografix.com/GPX/1/1 http://www.topografix.com/GPX/1/1/gpx.xsd">
  <metadata>
    <name>CX.DBC.66.Klinker-gravel classic 2026 v1</name>
    <author>
      <link href="https://www.komoot.de">
        <text>komoot</text>
        <type>text/html</type>
      </link>
    </author>
  </metadata>
  <wpt lat="52.213687" lon="5.547868">
    <name>Uitzicht over de heide</name>
    <sym>Flag, Blue</sym>
  </wpt>
  <wpt lat="52.207626" lon="5.553957">
    <name>Veldhoefweg onverhard (gravel)</name>
    <sym>Flag, Blue</sym>
  </wpt>
  <wpt lat="52.237413" lon="5.626662">
    <name>Oude Garderenseweg Gravelpad</name>
    <sym>Flag, Blue</sym>
  </wpt>
  <wpt lat="52.253999" lon="5.663162">
    <name>Zandig pad door het bos bij het Solse Gat</name>
    <sym>Flag, Blue</sym>
  </wpt>
  <wpt lat="52.250912" lon="5.675524">
    <name>De Laak, mooie bosweg</name>
    <sym>Flag, Blue</sym>
  </wpt>
  <wpt lat="52.261478" lon="5.681309">
    <name>Dodenweg gravelstrook</name>
    <sym>Flag, Blue</sym>
  </wpt>
  <wpt lat="52.268332" lon="5.704363">
    <name>Snackbar 't Speuldje</name>
    <sym>Restaurant</sym>
  </wpt>
  <wpt lat="52.270172" lon="5.704025">
    <name>Strade Bianche Tonnenberg</name>
    <sym>Flag, Blue</sym>
  </wpt>
  <wpt lat="52.284485" lon="5.689939">
    <name>Romeins Marskamp Ermelo</name>
    <sym>Flag, Blue</sym>
  </wpt>
  <wpt lat="52.290755" lon="5.671108">
    <name>Ermelose Heide</name>
    <sym>Flag, Blue</sym>
  </wpt>
  <wpt lat="52.285538" lon="5.629399">
    <name>Rechte gravelstrook in de Veluwe</name>
    <sym>Flag, Blue</sym>
  </wpt>
  <wpt lat="52.280643" lon="5.615643">
    <name>Groevenbeeklaan grindstrook</name>
    <sym>Flag, Blue</sym>
  </wpt>
  <wpt lat="52.285705" lon="5.614287">
    <name>Groevenbeekse Heide</name>
    <sym>Flag, Blue</sym>
  </wpt>
  <wpt lat="52.287077" lon="5.613944">
    <name>Prachtig gravelpad Groevenbeekse Heide</name>
    <sym>Flag, Blue</sym>
  </wpt>
  <wpt lat="52.281952" lon="5.597967">
    <name>Onverhard fietspad tussen spoor en hei</name>
    <sym>Flag, Blue</sym>
  </wpt>
  <wpt lat="52.266718" lon="5.601952">
    <name>Kerkepad</name>
    <sym>Flag, Blue</sym>
  </wpt>
  <wpt lat="52.254997" lon="5.556350">
    <name>Hoeverveldweg grindstrook</name>
    <sym>Flag, Blue</sym>
  </wpt>
  <wpt lat="52.250929" lon="5.522605">
    <name>Gravelpad Oldenallerallee en Leembruggerweg</name>
    <sym>Flag, Blue</sym>
  </wpt>
  <wpt lat="52.221891" lon="5.503869">
    <name>Luxoolseweg Gravelpad</name>
    <sym>Flag, Blue</sym>
  </wpt>
  <trk>
    <name>CX.DBC.66.Klinker-gravel classic 2026 v1</name>
    <type>mtb_easy</type>
    <trkseg>
      <trkpt lat="52.222227" lon="5.501079">
        <ele>2.575051</ele>
        <time>2026-08-25T17:16:26.011Z</time>
      </trkpt>
      <trkpt lat="52.222197" lon="5.500985">
        <ele>2.575051</ele>
        <time>2026-08-25T17:16:27.130Z</time>
      </trkpt>
      <trkpt lat="52.222071" lon="5.500700">
        <ele>2.575051</ele>
        <time>2026-08-25T17:16:30.868Z</time>
      </trkpt>
      <trkpt lat="52.221305" lon="5.499645">
        <ele>2.643668</ele>
        <time>2026-08-25T17:16:48.333Z</time>
      </trkpt>
      <trkpt lat="52.220717" lon="5.498757">
        <ele>2.787126</ele>
        <time>2026-08-25T17:17:02.861Z</time>
      </trkpt>
      <trkpt lat="52.220591" lon="5.499039">
        <ele>2.825420</ele>
        <time>2026-08-25T17:17:06.784Z</time>
      </trkpt>
      <trkpt lat="52.220176" lon="5.499968">
        <ele>2.880949</ele>
        <time>2026-08-25T17:17:19.261Z</time>
      </trkpt>
      <trkpt lat="52.220021" lon="5.500117">
        <ele>2.871346</ele>
        <time>2026-08-25T17:17:22.808Z</time>
      </trkpt>
      <trkpt lat="52.219936" lon="5.500249">
        <ele>2.865083</ele>
        <time>2026-08-25T17:17:25.120Z</time>
      </trkpt>
      <trkpt lat="52.219752" lon="5.500867">
        <ele>2.842609</ele>
        <time>2026-08-25T17:17:33.416Z</time>
      </trkpt>
      <trkpt lat="52.219575" lon="5.501181">
        <ele>2.828653</ele>
        <time>2026-08-25T17:17:38.515Z</time>
      </trkpt>
      <trkpt lat="52.219631" lon="5.501319">
        <ele>2.823239</ele>
        <time>2026-08-25T17:17:40.473Z</time>
      </trkpt>
      <trkpt lat="52.219663" lon="5.501466">
        <ele>2.818137</ele>
        <time>2026-08-25T17:17:42.068Z</time>
      </trkpt>
      <trkpt lat="52.219688" lon="5.502003">
        <ele>2.802167</ele>
        <time>2026-08-25T17:17:47.525Z</time>
      </trkpt>
      <trkpt lat="52.219681" lon="5.502473">
        <ele>2.827678</ele>
        <time>2026-08-25T17:17:52.343Z</time>
      </trkpt>
      <trkpt lat="52.219407" lon="5.503662">
        <ele>2.896608</ele>
        <time>2026-08-25T17:18:10.736Z</time>
      </trkpt>
      <trkpt lat="52.218610" lon="5.507110">
        <ele>3.249033</ele>
        <time>2026-08-25T17:19:05.090Z</time>
      </trkpt>
      <trkpt lat="52.217846" lon="5.509433">
        <ele>3.399637</ele>
        <time>2026-08-25T17:19:42.835Z</time>
      </trkpt>
      <trkpt lat="52.217760" lon="5.509854">
        <ele>3.420018</ele>
        <time>2026-08-25T17:19:49.253Z</time>
      </trkpt>
      <trkpt lat="52.217785" lon="5.510390">
        <ele>3.464811</ele>
        <time>2026-08-25T17:19:57.084Z</time>
      </trkpt>
      <trkpt lat="52.218230" lon="5.513740">
        <ele>3.955622</ele>
        <time>2026-08-25T17:20:47.855Z</time>
      </trkpt>
      <trkpt lat="52.218280" lon="5.514990">
        <ele>4.217715</ele>
        <time>2026-08-25T17:21:06.910Z</time>
      </trkpt>
      <trkpt lat="52.218270" lon="5.515700">
        <ele>4.366308</ele>
        <time>2026-08-25T17:21:17.845Z</time>
      </trkpt>
      <trkpt lat="52.218190" lon="5.516390">
        <ele>4.452276</ele>
        <time>2026-08-25T17:21:28.513Z</time>
      </trkpt>
      <trkpt lat="52.218130" lon="5.516700">
        <ele>4.478686</ele>
        <time>2026-08-25T17:21:33.364Z</time>
      </trkpt>
      <trkpt lat="52.217970" lon="5.517300">
        <ele>4.531846</ele>
        <time>2026-08-25T17:21:42.981Z</time>
      </trkpt>
      <trkpt lat="52.217800" lon="5.517810">
        <ele>4.579012</ele>
        <time>2026-08-25T17:21:51.352Z</time>
      </trkpt>
      <trkpt lat="52.217775" lon="5.518004">
        <ele>4.595117</ele>
        <time>2026-08-25T17:21:54.179Z</time>
      </trkpt>
      <trkpt lat="52.217770" lon="5.518040">
        <ele>4.598116</ele>
        <time>2026-08-25T17:21:54.702Z</time>
      </trkpt>
      <trkpt lat="52.217770" lon="5.518200">
        <ele>4.611114</ele>
        <time>2026-08-25T17:21:56.969Z</time>
      </trkpt>
      <trkpt lat="52.217861" lon="5.518457">
        <ele>4.635228</ele>
        <time>2026-08-25T17:22:01.143Z</time>
      </trkpt>
      <trkpt lat="52.217981" lon="5.518957">
        <ele>4.646347</ele>
        <time>2026-08-25T17:22:08.659Z</time>
      </trkpt>
      <trkpt lat="52.218011" lon="5.519327">
        <ele>4.639856</ele>
        <time>2026-08-25T17:22:13.852Z</time>
      </trkpt>
      <trkpt lat="52.217949" lon="5.519597">
        <ele>4.634840</ele>
        <time>2026-08-25T17:22:17.884Z</time>
      </trkpt>
      <trkpt lat="52.217074" lon="5.522545">
        <ele>4.832089</ele>
        <time>2026-08-25T17:23:04.402Z</time>
      </trkpt>
      <trkpt lat="52.216146" lon="5.525652">
        <ele>5.847012</ele>
        <time>2026-08-25T17:23:58.550Z</time>
      </trkpt>
      <trkpt lat="52.216170" lon="5.526060">
        <ele>6.009990</ele>
        <time>2026-08-25T17:24:05.369Z</time>
      </trkpt>
      <trkpt lat="52.216710" lon="5.527870">
        <ele>6.689147</ele>
        <time>2026-08-25T17:24:38.704Z</time>
      </trkpt>
      <trkpt lat="52.216780" lon="5.528240">
        <ele>6.808038</ele>
        <time>2026-08-25T17:24:44.765Z</time>
      </trkpt>
      <trkpt lat="52.216882" lon="5.529061">
        <ele>7.065233</ele>
        <time>2026-08-25T17:24:57.349Z</time>
      </trkpt>
      <trkpt lat="52.217490" lon="5.534606">
        <ele>6.645061</ele>
        <time>2026-08-25T17:26:15.390Z</time>
      </trkpt>
      <trkpt lat="52.217711" lon="5.536707">
        <ele>6.806374</ele>
        <time>2026-08-25T17:26:45.419Z</time>
      </trkpt>
      <trkpt lat="52.218046" lon="5.540508">
        <ele>7.736114</ele>
        <time>2026-08-25T17:27:46.108Z</time>
      </trkpt>
      <trkpt lat="52.216216" lon="5.540744">
        <ele>8.068607</ele>
        <time>2026-08-25T17:28:23.657Z</time>
      </trkpt>
      <trkpt lat="52.213304" lon="5.541120">
        <ele>8.239710</ele>
        <time>2026-08-25T17:29:21.852Z</time>
      </trkpt>
      <trkpt lat="52.213453" lon="5.543776">
        <ele>8.411948</ele>
        <time>2026-08-25T17:30:23.227Z</time>
      </trkpt>
      <trkpt lat="52.213637" lon="5.547025">
        <ele>8.675005</ele>
        <time>2026-08-25T17:31:39.017Z</time>
      </trkpt>
      <trkpt lat="52.213680" lon="5.547869">
        <ele>8.738190</ele>
        <time>2026-08-25T17:31:49.131Z</time>
      </trkpt>
      <trkpt lat="52.213937" lon="5.552870">
        <ele>8.865367</ele>
        <time>2026-08-25T17:32:48.273Z</time>
      </trkpt>
      <trkpt lat="52.213658" lon="5.552820">
        <ele>8.886216</ele>
        <time>2026-08-25T17:32:54.886Z</time>
      </trkpt>
      <trkpt lat="52.212190" lon="5.553110">
        <ele>9.224849</ele>
        <time>2026-08-25T17:33:30.510Z</time>
      </trkpt>
      <trkpt lat="52.211269" lon="5.553240">
        <ele>9.545082</ele>
        <time>2026-08-25T17:33:53.979Z</time>
      </trkpt>
      <trkpt lat="52.210725" lon="5.553317">
        <ele>9.591062</ele>
        <time>2026-08-25T17:34:07.734Z</time>
      </trkpt>
      <trkpt lat="52.207588" lon="5.553697">
        <ele>9.543245</ele>
        <time>2026-08-25T17:35:19.702Z</time>
      </trkpt>
      <trkpt lat="52.207602" lon="5.553960">
        <ele>9.558672</ele>
        <time>2026-08-25T17:35:22.790Z</time>
      </trkpt>
      <trkpt lat="52.208573" lon="5.571478">
        <ele>10.684106</ele>
        <time>2026-08-25T17:38:54.265Z</time>
      </trkpt>
      <trkpt lat="52.208750" lon="5.574914">
        <ele>11.465233</ele>
        <time>2026-08-25T17:39:38.257Z</time>
      </trkpt>
      <trkpt lat="52.208871" lon="5.576841">
        <ele>12.051189</ele>
        <time>2026-08-25T17:40:03.866Z</time>
      </trkpt>
      <trkpt lat="52.208891" lon="5.577228">
        <ele>12.152337</ele>
        <time>2026-08-25T17:40:09.177Z</time>
      </trkpt>
      <trkpt lat="52.208978" lon="5.578909">
        <ele>12.550317</ele>
        <time>2026-08-25T17:40:31.658Z</time>
      </trkpt>
      <trkpt lat="52.209252" lon="5.583596">
        <ele>12.735364</ele>
        <time>2026-08-25T17:41:26.996Z</time>
      </trkpt>
      <trkpt lat="52.209608" lon="5.590451">
        <ele>12.439997</ele>
        <time>2026-08-25T17:42:46.197Z</time>
      </trkpt>
      <trkpt lat="52.210369" lon="5.590573">
        <ele>12.509800</ele>
        <time>2026-08-25T17:43:02.247Z</time>
      </trkpt>
      <trkpt lat="52.210628" lon="5.590615">
        <ele>12.577733</ele>
        <time>2026-08-25T17:43:07.727Z</time>
      </trkpt>
      <trkpt lat="52.210931" lon="5.590756">
        <ele>12.659968</ele>
        <time>2026-08-25T17:43:14.319Z</time>
      </trkpt>
      <trkpt lat="52.211675" lon="5.591395">
        <ele>12.879403</ele>
        <time>2026-08-25T17:43:31.025Z</time>
      </trkpt>
      <trkpt lat="52.211971" lon="5.591473">
        <ele>12.957660</ele>
        <time>2026-08-25T17:43:37.006Z</time>
      </trkpt>
      <trkpt lat="52.213857" lon="5.591781">
        <ele>13.378933</ele>
        <time>2026-08-25T17:44:15.730Z</time>
      </trkpt>
      <trkpt lat="52.213948" lon="5.591795">
        <ele>13.362777</ele>
        <time>2026-08-25T17:44:17.497Z</time>
      </trkpt>
      <trkpt lat="52.213988" lon="5.591840">
        <ele>13.354189</ele>
        <time>2026-08-25T17:44:18.410Z</time>
      </trkpt>
      <trkpt lat="52.214426" lon="5.591984">
        <ele>13.275215</ele>
        <time>2026-08-25T17:44:26.846Z</time>
      </trkpt>
      <trkpt lat="52.214606" lon="5.591615">
        <ele>13.224134</ele>
        <time>2026-08-25T17:44:32.191Z</time>
      </trkpt>
      <trkpt lat="52.215011" lon="5.590074">
        <ele>13.011491</ele>
        <time>2026-08-25T17:44:50.915Z</time>
      </trkpt>
      <trkpt lat="52.216700" lon="5.582664">
        <ele>11.353393</ele>
        <time>2026-08-25T17:46:19.193Z</time>
      </trkpt>
      <trkpt lat="52.217008" lon="5.581132">
        <ele>11.043523</ele>
        <time>2026-08-25T17:46:37.661Z</time>
      </trkpt>
      <trkpt lat="52.217112" lon="5.580286">
        <ele>10.877603</ele>
        <time>2026-08-25T17:46:47.421Z</time>
      </trkpt>
      <trkpt lat="52.217472" lon="5.576350">
        <ele>9.921733</ele>
        <time>2026-08-25T17:47:31.018Z</time>
      </trkpt>
      <trkpt lat="52.217517" lon="5.575853">
        <ele>9.937809</ele>
        <time>2026-08-25T17:47:36.848Z</time>
      </trkpt>
      <trkpt lat="52.217569" lon="5.575553">
        <ele>9.953943</ele>
        <time>2026-08-25T17:47:40.569Z</time>
      </trkpt>
      <trkpt lat="52.217590" lon="5.575649">
        <ele>9.959217</ele>
        <time>2026-08-25T17:47:41.854Z</time>
      </trkpt>
      <trkpt lat="52.218119" lon="5.576911">
        <ele>10.038342</ele>
        <time>2026-08-25T17:48:01.439Z</time>
      </trkpt>
      <trkpt lat="52.218236" lon="5.577104">
        <ele>10.052391</ele>
        <time>2026-08-25T17:48:05.006Z</time>
      </trkpt>
      <trkpt lat="52.219354" lon="5.578464">
        <ele>10.222822</ele>
        <time>2026-08-25T17:48:33.540Z</time>
      </trkpt>
      <trkpt lat="52.220933" lon="5.580024">
        <ele>10.310597</ele>
        <time>2026-08-25T17:49:11.345Z</time>
      </trkpt>
      <trkpt lat="52.221018" lon="5.580098">
        <ele>10.311864</ele>
        <time>2026-08-25T17:49:13.235Z</time>
      </trkpt>
      <trkpt lat="52.222197" lon="5.581220">
        <ele>10.075153</ele>
        <time>2026-08-25T17:49:38.935Z</time>
      </trkpt>
      <trkpt lat="52.222773" lon="5.581803">
        <ele>9.902385</ele>
        <time>2026-08-25T17:49:51.911Z</time>
      </trkpt>
      <trkpt lat="52.223108" lon="5.582218">
        <ele>9.859187</ele>
        <time>2026-08-25T17:50:00.235Z</time>
      </trkpt>
      <trkpt lat="52.223655" lon="5.583103">
        <ele>9.860347</ele>
        <time>2026-08-25T17:50:15.817Z</time>
      </trkpt>
      <trkpt lat="52.223771" lon="5.583243">
        <ele>9.860565</ele>
        <time>2026-08-25T17:50:18.761Z</time>
      </trkpt>
      <trkpt lat="52.225320" lon="5.584476">
        <ele>9.832362</ele>
        <time>2026-08-25T17:50:52.756Z</time>
      </trkpt>
      <trkpt lat="52.225654" lon="5.584627">
        <ele>9.823080</ele>
        <time>2026-08-25T17:50:59.574Z</time>
      </trkpt>
      <trkpt lat="52.225983" lon="5.584776">
        <ele>9.813935</ele>
        <time>2026-08-25T17:51:06.353Z</time>
      </trkpt>
      <trkpt lat="52.226026" lon="5.584830">
        <ele>9.812951</ele>
        <time>2026-08-25T17:51:07.420Z</time>
      </trkpt>
      <trkpt lat="52.226197" lon="5.582173">
        <ele>9.792853</ele>
        <time>2026-08-25T17:51:35.771Z</time>
      </trkpt>
      <trkpt lat="52.226267" lon="5.580228">
        <ele>9.451287</ele>
        <time>2026-08-25T17:51:55.312Z</time>
      </trkpt>
      <trkpt lat="52.226318" lon="5.577264">
        <ele>8.924396</ele>
        <time>2026-08-25T17:52:24.352Z</time>
      </trkpt>
      <trkpt lat="52.226311" lon="5.576544">
        <ele>8.805300</ele>
        <time>2026-08-25T17:52:31.753Z</time>
      </trkpt>
      <trkpt lat="52.226283" lon="5.576262">
        <ele>8.758052</ele>
        <time>2026-08-25T17:52:34.719Z</time>
      </trkpt>
      <trkpt lat="52.226146" lon="5.575625">
        <ele>8.739471</ele>
        <time>2026-08-25T17:52:41.832Z</time>
      </trkpt>
      <trkpt lat="52.226113" lon="5.575044">
        <ele>8.749509</ele>
        <time>2026-08-25T17:52:48.100Z</time>
      </trkpt>
      <trkpt lat="52.226115" lon="5.574543">
        <ele>8.758128</ele>
        <time>2026-08-25T17:52:53.536Z</time>
      </trkpt>
      <trkpt lat="52.226153" lon="5.573646">
        <ele>8.773597</ele>
        <time>2026-08-25T17:53:03.095Z</time>
      </trkpt>
      <trkpt lat="52.226185" lon="5.573289">
        <ele>8.779804</ele>
        <time>2026-08-25T17:53:06.827Z</time>
      </trkpt>
      <trkpt lat="52.226250" lon="5.572572">
        <ele>8.735170</ele>
        <time>2026-08-25T17:53:14.287Z</time>
      </trkpt>
      <trkpt lat="52.226338" lon="5.571975">
        <ele>8.691174</ele>
        <time>2026-08-25T17:53:20.610Z</time>
      </trkpt>
      <trkpt lat="52.228480" lon="5.573704">
        <ele>8.318875</ele>
        <time>2026-08-25T17:54:00.604Z</time>
      </trkpt>
      <trkpt lat="52.229520" lon="5.574543">
        <ele>8.169711</ele>
        <time>2026-08-25T17:54:19.341Z</time>
      </trkpt>
      <trkpt lat="52.230150" lon="5.575052">
        <ele>8.103453</ele>
        <time>2026-08-25T17:54:31.009Z</time>
      </trkpt>
      <trkpt lat="52.230165" lon="5.575229">
        <ele>8.093136</ele>
        <time>2026-08-25T17:54:33.542Z</time>
      </trkpt>
      <trkpt lat="52.229751" lon="5.581835">
        <ele>9.587762</ele>
        <time>2026-08-25T17:56:15.413Z</time>
      </trkpt>
      <trkpt lat="52.229643" lon="5.584765">
        <ele>10.239593</ele>
        <time>2026-08-25T17:57:00.459Z</time>
      </trkpt>
      <trkpt lat="52.229527" lon="5.585822">
        <ele>10.403749</ele>
        <time>2026-08-25T17:57:16.264Z</time>
      </trkpt>
      <trkpt lat="52.229329" lon="5.587559">
        <ele>10.649223</ele>
        <time>2026-08-25T17:57:42.299Z</time>
      </trkpt>
      <trkpt lat="52.229160" lon="5.588720">
        <ele>10.708588</ele>
        <time>2026-08-25T17:57:59.857Z</time>
      </trkpt>
      <trkpt lat="52.229027" lon="5.589253">
        <ele>10.737220</ele>
        <time>2026-08-25T17:58:08.331Z</time>
      </trkpt>
      <trkpt lat="52.228846" lon="5.591163">
        <ele>10.655452</ele>
        <time>2026-08-25T17:58:35.226Z</time>
      </trkpt>
      <trkpt lat="52.228836" lon="5.591505">
        <ele>10.611799</ele>
        <time>2026-08-25T17:58:39.842Z</time>
      </trkpt>
      <trkpt lat="52.228896" lon="5.592947">
        <ele>10.427529</ele>
        <time>2026-08-25T17:58:59.670Z</time>
      </trkpt>
      <trkpt lat="52.228989" lon="5.595762">
        <ele>10.662782</ele>
        <time>2026-08-25T17:59:41.027Z</time>
      </trkpt>
      <trkpt lat="52.228897" lon="5.596616">
        <ele>10.823055</ele>
        <time>2026-08-25T17:59:53.857Z</time>
      </trkpt>
      <trkpt lat="52.228685" lon="5.598563">
        <ele>11.265772</ele>
        <time>2026-08-25T18:00:23.836Z</time>
      </trkpt>
      <trkpt lat="52.228905" lon="5.598764">
        <ele>11.357966</ele>
        <time>2026-08-25T18:00:28.813Z</time>
      </trkpt>
      <trkpt lat="52.229300" lon="5.599125">
        <ele>11.524046</ele>
        <time>2026-08-25T18:00:37.767Z</time>
      </trkpt>
      <trkpt lat="52.229842" lon="5.599884">
        <ele>11.786023</ele>
        <time>2026-08-25T18:00:51.553Z</time>
      </trkpt>
      <trkpt lat="52.230063" lon="5.600144">
        <ele>11.885962</ele>
        <time>2026-08-25T18:00:56.529Z</time>
      </trkpt>
      <trkpt lat="52.230275" lon="5.600236">
        <ele>11.966442</ele>
        <time>2026-08-25T18:01:00.396Z</time>
      </trkpt>
      <trkpt lat="52.231588" lon="5.600184">
        <ele>12.039785</ele>
        <time>2026-08-25T18:01:22.393Z</time>
      </trkpt>
      <trkpt lat="52.231828" lon="5.600174">
        <ele>12.046699</ele>
        <time>2026-08-25T18:01:26.530Z</time>
      </trkpt>
      <trkpt lat="52.232062" lon="5.600170">
        <ele>12.053438</ele>
        <time>2026-08-25T18:01:30.717Z</time>
      </trkpt>
      <trkpt lat="52.232262" lon="5.600164">
        <ele>12.099181</ele>
        <time>2026-08-25T18:01:34.435Z</time>
      </trkpt>
      <trkpt lat="52.232590" lon="5.600148">
        <ele>12.265174</ele>
        <time>2026-08-25T18:01:40.716Z</time>
      </trkpt>
      <trkpt lat="52.232672" lon="5.600144">
        <ele>12.306672</ele>
        <time>2026-08-25T18:01:42.326Z</time>
      </trkpt>
      <trkpt lat="52.233293" lon="5.600115">
        <ele>12.620933</ele>
        <time>2026-08-25T18:01:54.851Z</time>
      </trkpt>
      <trkpt lat="52.233526" lon="5.600205">
        <ele>12.742050</ele>
        <time>2026-08-25T18:01:59.669Z</time>
      </trkpt>
      <trkpt lat="52.233604" lon="5.600361">
        <ele>12.804440</ele>
        <time>2026-08-25T18:02:02.143Z</time>
      </trkpt>
      <trkpt lat="52.233754" lon="5.601009">
        <ele>12.974834</ele>
        <time>2026-08-25T18:02:10.406Z</time>
      </trkpt>
      <trkpt lat="52.234115" lon="5.601031">
        <ele>13.003431</ele>
        <time>2026-08-25T18:02:16.972Z</time>
      </trkpt>
      <trkpt lat="52.235120" lon="5.601075">
        <ele>13.083017</ele>
        <time>2026-08-25T18:02:34.044Z</time>
      </trkpt>
      <trkpt lat="52.235154" lon="5.601065">
        <ele>13.085751</ele>
        <time>2026-08-25T18:02:34.620Z</time>
      </trkpt>
      <trkpt lat="52.235320" lon="5.600990">
        <ele>13.099386</ele>
        <time>2026-08-25T18:02:37.505Z</time>
      </trkpt>
      <trkpt lat="52.236290" lon="5.599580">
        <ele>13.174923</ele>
        <time>2026-08-25T18:02:59.934Z</time>
      </trkpt>
      <trkpt lat="52.236510" lon="5.599310">
        <ele>13.190334</ele>
        <time>2026-08-25T18:03:04.777Z</time>
      </trkpt>
      <trkpt lat="52.236780" lon="5.599030">
        <ele>13.208244</ele>
        <time>2026-08-25T18:03:10.402Z</time>
      </trkpt>
      <trkpt lat="52.237010" lon="5.598890">
        <ele>13.250287</ele>
        <time>2026-08-25T18:03:14.714Z</time>
      </trkpt>
      <trkpt lat="52.237190" lon="5.598880">
        <ele>13.283652</ele>
        <time>2026-08-25T18:03:17.878Z</time>
      </trkpt>
      <trkpt lat="52.237721" lon="5.599084">
        <ele>13.384707</ele>
        <time>2026-08-25T18:03:27.478Z</time>
      </trkpt>
      <trkpt lat="52.238273" lon="5.599296">
        <ele>13.489757</ele>
        <time>2026-08-25T18:03:37.590Z</time>
      </trkpt>
      <trkpt lat="52.238308" lon="5.600530">
        <ele>13.798140</ele>
        <time>2026-08-25T18:03:51.762Z</time>
      </trkpt>
      <trkpt lat="52.238290" lon="5.600835">
        <ele>13.900149</ele>
        <time>2026-08-25T18:03:55.428Z</time>
      </trkpt>
      <trkpt lat="52.238160" lon="5.601490">
        <ele>14.129375</ele>
        <time>2026-08-25T18:04:03.814Z</time>
      </trkpt>
      <trkpt lat="52.237790" lon="5.602690">
        <ele>14.576771</ele>
        <time>2026-08-25T18:04:20.473Z</time>
      </trkpt>
      <trkpt lat="52.237720" lon="5.603130">
        <ele>14.728429</ele>
        <time>2026-08-25T18:04:26.080Z</time>
      </trkpt>
      <trkpt lat="52.237700" lon="5.603600">
        <ele>14.885600</ele>
        <time>2026-08-25T18:04:31.835Z</time>
      </trkpt>
      <trkpt lat="52.237720" lon="5.603920">
        <ele>14.992907</ele>
        <time>2026-08-25T18:04:35.719Z</time>
      </trkpt>
      <trkpt lat="52.238126" lon="5.606886">
        <ele>15.846156</ele>
        <time>2026-08-25T18:05:11.130Z</time>
      </trkpt>
      <trkpt lat="52.238138" lon="5.606965">
        <ele>15.864693</ele>
        <time>2026-08-25T18:05:12.084Z</time>
      </trkpt>
      <trkpt lat="52.238277" lon="5.607865">
        <ele>16.076079</ele>
        <time>2026-08-25T18:05:23.014Z</time>
      </trkpt>
      <trkpt lat="52.238365" lon="5.608586">
        <ele>16.184017</ele>
        <time>2026-08-25T18:05:31.006Z</time>
      </trkpt>
      <trkpt lat="52.238389" lon="5.608785">
        <ele>16.193084</ele>
        <time>2026-08-25T18:05:33.127Z</time>
      </trkpt>
      <trkpt lat="52.238403" lon="5.608884">
        <ele>16.197627</ele>
        <time>2026-08-25T18:05:34.244Z</time>
      </trkpt>
      <trkpt lat="52.238316" lon="5.609304">
        <ele>16.217448</ele>
        <time>2026-08-25T18:05:38.930Z</time>
      </trkpt>
      <trkpt lat="52.238249" lon="5.609398">
        <ele>16.223897</ele>
        <time>2026-08-25T18:05:40.446Z</time>
      </trkpt>
      <trkpt lat="52.238174" lon="5.609436">
        <ele>16.229630</ele>
        <time>2026-08-25T18:05:41.833Z</time>
      </trkpt>
      <trkpt lat="52.238180" lon="5.609601">
        <ele>16.237019</ele>
        <time>2026-08-25T18:05:43.552Z</time>
      </trkpt>
      <trkpt lat="52.238184" lon="5.609746">
        <ele>16.243508</ele>
        <time>2026-08-25T18:05:45.104Z</time>
      </trkpt>
      <trkpt lat="52.237848" lon="5.609752">
        <ele>16.268039</ele>
        <time>2026-08-25T18:05:50.785Z</time>
      </trkpt>
      <trkpt lat="52.236581" lon="5.609801">
        <ele>16.273155</ele>
        <time>2026-08-25T18:06:12.750Z</time>
      </trkpt>
      <trkpt lat="52.236354" lon="5.609772">
        <ele>16.265468</ele>
        <time>2026-08-25T18:06:16.811Z</time>
      </trkpt>
      <trkpt lat="52.236120" lon="5.609713">
        <ele>16.257475</ele>
        <time>2026-08-25T18:06:20.902Z</time>
      </trkpt>
      <trkpt lat="52.235638" lon="5.609510">
        <ele>16.240670</ele>
        <time>2026-08-25T18:06:29.223Z</time>
      </trkpt>
      <trkpt lat="52.234940" lon="5.609116">
        <ele>16.053604</ele>
        <time>2026-08-25T18:06:41.164Z</time>
      </trkpt>
      <trkpt lat="52.234888" lon="5.609087">
        <ele>16.039389</ele>
        <time>2026-08-25T18:06:42.038Z</time>
      </trkpt>
      <trkpt lat="52.234518" lon="5.608910">
        <ele>15.939650</ele>
        <time>2026-08-25T18:06:48.224Z</time>
      </trkpt>
      <trkpt lat="52.234356" lon="5.608875">
        <ele>15.897377</ele>
        <time>2026-08-25T18:06:50.841Z</time>
      </trkpt>
      <trkpt lat="52.233528" lon="5.608864">
        <ele>15.779211</ele>
        <time>2026-08-25T18:07:04.662Z</time>
      </trkpt>
      <trkpt lat="52.233531" lon="5.609027">
        <ele>15.780461</ele>
        <time>2026-08-25T18:07:06.611Z</time>
      </trkpt>
      <trkpt lat="52.233589" lon="5.609306">
        <ele>15.782719</ele>
        <time>2026-08-25T18:07:10.224Z</time>
      </trkpt>
      <trkpt lat="52.233172" lon="5.609699">
        <ele>15.788746</ele>
        <time>2026-08-25T18:07:19.797Z</time>
      </trkpt>
      <trkpt lat="52.232964" lon="5.609895">
        <ele>15.791752</ele>
        <time>2026-08-25T18:07:24.541Z</time>
      </trkpt>
      <trkpt lat="52.232702" lon="5.610194">
        <ele>15.795753</ele>
        <time>2026-08-25T18:07:30.826Z</time>
      </trkpt>
      <trkpt lat="52.231862" lon="5.611317">
        <ele>15.693131</ele>
        <time>2026-08-25T18:07:51.431Z</time>
      </trkpt>
      <trkpt lat="52.230444" lon="5.612833">
        <ele>15.715149</ele>
        <time>2026-08-25T18:08:22.813Z</time>
      </trkpt>
      <trkpt lat="52.230116" lon="5.613134">
        <ele>15.764405</ele>
        <time>2026-08-25T18:08:30.560Z</time>
      </trkpt>
      <trkpt lat="52.229882" lon="5.613295">
        <ele>15.797646</ele>
        <time>2026-08-25T18:08:35.985Z</time>
      </trkpt>
      <trkpt lat="52.229957" lon="5.614249">
        <ele>16.018259</ele>
        <time>2026-08-25T18:08:51.353Z</time>
      </trkpt>
      <trkpt lat="52.229992" lon="5.614759">
        <ele>16.220661</ele>
        <time>2026-08-25T18:08:59.557Z</time>
      </trkpt>
      <trkpt lat="52.229994" lon="5.614790">
        <ele>16.232955</ele>
        <time>2026-08-25T18:09:00.043Z</time>
      </trkpt>
      <trkpt lat="52.230096" lon="5.615405">
        <ele>16.484245</ele>
        <time>2026-08-25T18:09:10.188Z</time>
      </trkpt>
      <trkpt lat="52.230205" lon="5.616258">
        <ele>16.827910</ele>
        <time>2026-08-25T18:09:24.188Z</time>
      </trkpt>
      <trkpt lat="52.230288" lon="5.616862">
        <ele>17.048808</ele>
        <time>2026-08-25T18:09:34.038Z</time>
      </trkpt>
      <trkpt lat="52.230465" lon="5.617615">
        <ele>17.269264</ele>
        <time>2026-08-25T18:09:46.845Z</time>
      </trkpt>
      <trkpt lat="52.230540" lon="5.617998">
        <ele>17.379170</ele>
        <time>2026-08-25T18:09:53.189Z</time>
      </trkpt>
      <trkpt lat="52.230556" lon="5.618472">
        <ele>17.508925</ele>
        <time>2026-08-25T18:10:00.513Z</time>
      </trkpt>
      <trkpt lat="52.230631" lon="5.618673">
        <ele>17.573257</ele>
        <time>2026-08-25T18:10:04.142Z</time>
      </trkpt>
      <trkpt lat="52.230846" lon="5.619180">
        <ele>17.741809</ele>
        <time>2026-08-25T18:10:13.507Z</time>
      </trkpt>
      <trkpt lat="52.230913" lon="5.619331">
        <ele>17.792774</ele>
        <time>2026-08-25T18:10:16.270Z</time>
      </trkpt>
      <trkpt lat="52.231154" lon="5.619856">
        <ele>17.863271</ele>
        <time>2026-08-25T18:10:24.246Z</time>
      </trkpt>
      <trkpt lat="52.231346" lon="5.620303">
        <ele>17.918672</ele>
        <time>2026-08-25T18:10:30.689Z</time>
      </trkpt>
      <trkpt lat="52.231606" lon="5.621367">
        <ele>18.034914</ele>
        <time>2026-08-25T18:10:44.242Z</time>
      </trkpt>
      <trkpt lat="52.231673" lon="5.621632">
        <ele>18.064005</ele>
        <time>2026-08-25T18:10:47.816Z</time>
      </trkpt>
      <trkpt lat="52.231751" lon="5.621937">
        <ele>18.097857</ele>
        <time>2026-08-25T18:10:51.963Z</time>
      </trkpt>
      <trkpt lat="52.232194" lon="5.621784">
        <ele>18.216427</ele>
        <time>2026-08-25T18:11:00.291Z</time>
      </trkpt>
      <trkpt lat="52.233944" lon="5.621144">
        <ele>18.653912</ele>
        <time>2026-08-25T18:11:33.377Z</time>
      </trkpt>
      <trkpt lat="52.235714" lon="5.620518">
        <ele>18.876456</ele>
        <time>2026-08-25T18:12:05.519Z</time>
      </trkpt>
      <trkpt lat="52.235911" lon="5.620446">
        <ele>18.861478</ele>
        <time>2026-08-25T18:12:08.910Z</time>
      </trkpt>
      <trkpt lat="52.237134" lon="5.620123">
        <ele>18.818710</ele>
        <time>2026-08-25T18:12:29.253Z</time>
      </trkpt>
      <trkpt lat="52.237686" lon="5.619978">
        <ele>19.038170</ele>
        <time>2026-08-25T18:12:39.033Z</time>
      </trkpt>
      <trkpt lat="52.237554" lon="5.621018">
        <ele>19.293478</ele>
        <time>2026-08-25T18:12:51.868Z</time>
      </trkpt>
      <trkpt lat="52.237482" lon="5.621627">
        <ele>19.442572</ele>
        <time>2026-08-25T18:12:59.742Z</time>
      </trkpt>
      <trkpt lat="52.237474" lon="5.621703">
        <ele>19.461109</ele>
        <time>2026-08-25T18:13:00.741Z</time>
      </trkpt>
      <trkpt lat="52.237355" lon="5.622796">
        <ele>19.812638</ele>
        <time>2026-08-25T18:13:14.783Z</time>
      </trkpt>
      <trkpt lat="52.237379" lon="5.624457">
        <ele>20.350290</ele>
        <time>2026-08-25T18:13:34.280Z</time>
      </trkpt>
      <trkpt lat="52.237412" lon="5.626619">
        <ele>20.689487</ele>
        <time>2026-08-25T18:13:58.577Z</time>
      </trkpt>
      <trkpt lat="52.237427" lon="5.627170">
        <ele>20.763523</ele>
        <time>2026-08-25T18:14:11.174Z</time>
      </trkpt>
      <trkpt lat="52.237442" lon="5.627936">
        <ele>20.883422</ele>
        <time>2026-08-25T18:14:28.650Z</time>
      </trkpt>
      <trkpt lat="52.237453" lon="5.628720">
        <ele>21.035471</ele>
        <time>2026-08-25T18:14:46.566Z</time>
      </trkpt>
      <trkpt lat="52.237502" lon="5.631753">
        <ele>21.923762</ele>
        <time>2026-08-25T18:15:59.419Z</time>
      </trkpt>
      <trkpt lat="52.237541" lon="5.634273">
        <ele>22.949068</ele>
        <time>2026-08-25T18:17:03.022Z</time>
      </trkpt>
      <trkpt lat="52.237576" lon="5.635519">
        <ele>23.325864</ele>
        <time>2026-08-25T18:17:32.805Z</time>
      </trkpt>
      <trkpt lat="52.237610" lon="5.637963">
        <ele>24.012415</ele>
        <time>2026-08-25T18:18:29.567Z</time>
      </trkpt>
      <trkpt lat="52.237670" lon="5.639787">
        <ele>24.516666</ele>
        <time>2026-08-25T18:19:14.930Z</time>
      </trkpt>
      <trkpt lat="52.237781" lon="5.643034">
        <ele>25.487065</ele>
        <time>2026-08-25T18:20:32.734Z</time>
      </trkpt>
      <trkpt lat="52.237794" lon="5.644486">
        <ele>25.876555</ele>
        <time>2026-08-25T18:21:06.938Z</time>
      </trkpt>
      <trkpt lat="52.237619" lon="5.646743">
        <ele>26.212105</ele>
        <time>2026-08-25T18:22:02.003Z</time>
      </trkpt>
      <trkpt lat="52.237520" lon="5.647544">
        <ele>26.281624</ele>
        <time>2026-08-25T18:22:20.335Z</time>
      </trkpt>
      <trkpt lat="52.237513" lon="5.647592">
        <ele>26.285821</ele>
        <time>2026-08-25T18:22:21.428Z</time>
      </trkpt>
      <trkpt lat="52.237491" lon="5.648124">
        <ele>26.331184</ele>
        <time>2026-08-25T18:22:33.120Z</time>
      </trkpt>
      <trkpt lat="52.237499" lon="5.649369">
        <ele>26.667022</ele>
        <time>2026-08-25T18:23:00.678Z</time>
      </trkpt>
      <trkpt lat="52.237479" lon="5.649564">
        <ele>26.721495</ele>
        <time>2026-08-25T18:23:05.213Z</time>
      </trkpt>
      <trkpt lat="52.237204" lon="5.651087">
        <ele>27.191579</ele>
        <time>2026-08-25T18:23:45.523Z</time>
      </trkpt>
      <trkpt lat="52.237193" lon="5.651328">
        <ele>27.399524</ele>
        <time>2026-08-25T18:23:52.135Z</time>
      </trkpt>
      <trkpt lat="52.237189" lon="5.653506">
        <ele>29.273609</ele>
        <time>2026-08-25T18:24:51.410Z</time>
      </trkpt>
      <trkpt lat="52.237220" lon="5.654036">
        <ele>29.700114</ele>
        <time>2026-08-25T18:25:05.252Z</time>
      </trkpt>
      <trkpt lat="52.237223" lon="5.654081">
        <ele>29.718850</ele>
        <time>2026-08-25T18:25:06.428Z</time>
      </trkpt>
      <trkpt lat="52.237387" lon="5.656430">
        <ele>30.697417</ele>
        <time>2026-08-25T18:26:04.098Z</time>
      </trkpt>
      <trkpt lat="52.237394" lon="5.656526">
        <ele>30.737432</ele>
        <time>2026-08-25T18:26:05.221Z</time>
      </trkpt>
      <trkpt lat="52.237399" lon="5.656593">
        <ele>30.765369</ele>
        <time>2026-08-25T18:26:06.008Z</time>
      </trkpt>
      <trkpt lat="52.237409" lon="5.656747">
        <ele>30.829468</ele>
        <time>2026-08-25T18:26:07.815Z</time>
      </trkpt>
      <trkpt lat="52.237451" lon="5.656759">
        <ele>30.858287</ele>
        <time>2026-08-25T18:26:08.624Z</time>
      </trkpt>
      <trkpt lat="52.237539" lon="5.656767">
        <ele>30.903315</ele>
        <time>2026-08-25T18:26:10.297Z</time>
      </trkpt>
      <trkpt lat="52.237642" lon="5.656756">
        <ele>30.940738</ele>
        <time>2026-08-25T18:26:12.258Z</time>
      </trkpt>
      <trkpt lat="52.237733" lon="5.656690">
        <ele>30.976838</ele>
        <time>2026-08-25T18:26:14.146Z</time>
      </trkpt>
      <trkpt lat="52.237925" lon="5.656021">
        <ele>31.140872</ele>
        <time>2026-08-25T18:26:22.731Z</time>
      </trkpt>
      <trkpt lat="52.238579" lon="5.654497">
        <ele>31.537636</ele>
        <time>2026-08-25T18:26:44.078Z</time>
      </trkpt>
      <trkpt lat="52.238999" lon="5.653369">
        <ele>31.519580</ele>
        <time>2026-08-25T18:26:58.102Z</time>
      </trkpt>
      <trkpt lat="52.239089" lon="5.653187">
        <ele>31.516381</ele>
        <time>2026-08-25T18:27:00.547Z</time>
      </trkpt>
      <trkpt lat="52.239169" lon="5.653091">
        <ele>31.514163</ele>
        <time>2026-08-25T18:27:02.223Z</time>
      </trkpt>
      <trkpt lat="52.239477" lon="5.652901">
        <ele>31.506810</ele>
        <time>2026-08-25T18:27:07.767Z</time>
      </trkpt>
      <trkpt lat="52.239565" lon="5.652735">
        <ele>31.503807</ele>
        <time>2026-08-25T18:27:10.002Z</time>
      </trkpt>
      <trkpt lat="52.239648" lon="5.652482">
        <ele>31.499881</ele>
        <time>2026-08-25T18:27:12.891Z</time>
      </trkpt>
      <trkpt lat="52.239816" lon="5.651750">
        <ele>31.324887</ele>
        <time>2026-08-25T18:27:20.654Z</time>
      </trkpt>
      <trkpt lat="52.239954" lon="5.651438">
        <ele>31.225876</ele>
        <time>2026-08-25T18:27:24.430Z</time>
      </trkpt>
      <trkpt lat="52.241937" lon="5.648487">
        <ele>30.237652</ele>
        <time>2026-08-25T18:28:06.984Z</time>
      </trkpt>
      <trkpt lat="52.242339" lon="5.647985">
        <ele>30.261168</ele>
        <time>2026-08-25T18:28:16.111Z</time>
      </trkpt>
      <trkpt lat="52.242570" lon="5.647593">
        <ele>30.415117</ele>
        <time>2026-08-25T18:28:22.393Z</time>
      </trkpt>
      <trkpt lat="52.242655" lon="5.647360">
        <ele>30.491864</ele>
        <time>2026-08-25T18:28:25.584Z</time>
      </trkpt>
      <trkpt lat="52.242876" lon="5.646982">
        <ele>30.639755</ele>
        <time>2026-08-25T18:28:31.790Z</time>
      </trkpt>
      <trkpt lat="52.243011" lon="5.646889">
        <ele>30.707465</ele>
        <time>2026-08-25T18:28:34.663Z</time>
      </trkpt>
      <trkpt lat="52.243002" lon="5.646822">
        <ele>30.726875</ele>
        <time>2026-08-25T18:28:35.548Z</time>
      </trkpt>
      <trkpt lat="52.243021" lon="5.646747">
        <ele>30.749842</ele>
        <time>2026-08-25T18:28:36.635Z</time>
      </trkpt>
      <trkpt lat="52.243368" lon="5.646522">
        <ele>30.922378</ele>
        <time>2026-08-25T18:28:44.753Z</time>
      </trkpt>
      <trkpt lat="52.243666" lon="5.646360">
        <ele>31.167787</ele>
        <time>2026-08-25T18:28:51.659Z</time>
      </trkpt>
      <trkpt lat="52.243838" lon="5.646363">
        <ele>31.339716</ele>
        <time>2026-08-25T18:28:55.479Z</time>
      </trkpt>
      <trkpt lat="52.247109" lon="5.644494">
        <ele>34.709117</ele>
        <time>2026-08-25T18:30:18.098Z</time>
      </trkpt>
      <trkpt lat="52.247115" lon="5.644538">
        <ele>34.717961</ele>
        <time>2026-08-25T18:30:19.191Z</time>
      </trkpt>
      <trkpt lat="52.246677" lon="5.644788">
        <ele>34.866651</ele>
        <time>2026-08-25T18:30:34.359Z</time>
      </trkpt>
      <trkpt lat="52.247115" lon="5.644538">
        <ele>35.015341</ele>
        <time>2026-08-25T18:30:49.045Z</time>
      </trkpt>
      <trkpt lat="52.247236" lon="5.645187">
        <ele>35.148453</ele>
        <time>2026-08-25T18:31:04.433Z</time>
      </trkpt>
      <trkpt lat="52.247322" lon="5.645835">
        <ele>35.310948</ele>
        <time>2026-08-25T18:31:20.067Z</time>
      </trkpt>
      <trkpt lat="52.247532" lon="5.646822">
        <ele>35.617109</ele>
        <time>2026-08-25T18:31:44.851Z</time>
      </trkpt>
      <trkpt lat="52.247904" lon="5.649101">
        <ele>36.176120</ele>
        <time>2026-08-25T18:32:42.451Z</time>
      </trkpt>
      <trkpt lat="52.248030" lon="5.650016">
        <ele>36.296176</ele>
        <time>2026-08-25T18:33:04.224Z</time>
      </trkpt>
      <trkpt lat="52.247989" lon="5.652343">
        <ele>36.660241</ele>
        <time>2026-08-25T18:33:56.742Z</time>
      </trkpt>
      <trkpt lat="52.248109" lon="5.653199">
        <ele>36.824060</ele>
        <time>2026-08-25T18:34:17.379Z</time>
      </trkpt>
      <trkpt lat="52.248104" lon="5.653771">
        <ele>36.930776</ele>
        <time>2026-08-25T18:34:31.357Z</time>
      </trkpt>
      <trkpt lat="52.248679" lon="5.654563">
        <ele>37.737312</ele>
        <time>2026-08-25T18:35:02.189Z</time>
      </trkpt>
      <trkpt lat="52.248821" lon="5.654815">
        <ele>38.028626</ele>
        <time>2026-08-25T18:35:10.935Z</time>
      </trkpt>
      <trkpt lat="52.248995" lon="5.655271">
        <ele>38.485655</ele>
        <time>2026-08-25T18:35:25.296Z</time>
      </trkpt>
      <trkpt lat="52.249625" lon="5.655818">
        <ele>39.476890</ele>
        <time>2026-08-25T18:35:57.713Z</time>
      </trkpt>
      <trkpt lat="52.250639" lon="5.657436">
        <ele>41.803049</ele>
        <time>2026-08-25T18:37:03.345Z</time>
      </trkpt>
      <trkpt lat="52.251303" lon="5.658431">
        <ele>43.023608</ele>
        <time>2026-08-25T18:37:38.874Z</time>
      </trkpt>
      <trkpt lat="52.251704" lon="5.659148">
        <ele>43.694649</ele>
        <time>2026-08-25T18:38:01.630Z</time>
      </trkpt>
      <trkpt lat="52.252268" lon="5.660109">
        <ele>44.842364</ele>
        <time>2026-08-25T18:38:38.085Z</time>
      </trkpt>
      <trkpt lat="52.252589" lon="5.660602">
        <ele>46.200203</ele>
        <time>2026-08-25T18:39:00.916Z</time>
      </trkpt>
      <trkpt lat="52.253171" lon="5.661729">
        <ele>48.981889</ele>
        <time>2026-08-25T18:39:49.483Z</time>
      </trkpt>
      <trkpt lat="52.253628" lon="5.662307">
        <ele>50.423011</ele>
        <time>2026-08-25T18:40:18.634Z</time>
      </trkpt>
      <trkpt lat="52.253794" lon="5.662635">
        <ele>50.855524</ele>
        <time>2026-08-25T18:40:30.996Z</time>
      </trkpt>
      <trkpt lat="52.253992" lon="5.663170">
        <ele>51.490881</ele>
        <time>2026-08-25T18:40:48.200Z</time>
      </trkpt>
      <trkpt lat="52.254188" lon="5.663906">
        <ele>52.306580</ele>
        <time>2026-08-25T18:41:08.979Z</time>
      </trkpt>
      <trkpt lat="52.254318" lon="5.664542">
        <ele>52.988016</ele>
        <time>2026-08-25T18:41:25.628Z</time>
      </trkpt>
      <trkpt lat="52.254449" lon="5.665379">
        <ele>53.512412</ele>
        <time>2026-08-25T18:41:47.021Z</time>
      </trkpt>
      <trkpt lat="52.254612" lon="5.665921">
        <ele>53.872037</ele>
        <time>2026-08-25T18:42:02.456Z</time>
      </trkpt>
      <trkpt lat="52.254750" lon="5.666163">
        <ele>54.068997</ele>
        <time>2026-08-25T18:42:11.155Z</time>
      </trkpt>
      <trkpt lat="52.255189" lon="5.666308">
        <ele>54.504716</ele>
        <time>2026-08-25T18:42:28.832Z</time>
      </trkpt>
      <trkpt lat="52.255752" lon="5.666413">
        <ele>54.609422</ele>
        <time>2026-08-25T18:42:50.007Z</time>
      </trkpt>
      <trkpt lat="52.256053" lon="5.666660">
        <ele>54.439809</ele>
        <time>2026-08-25T18:43:01.628Z</time>
      </trkpt>
      <trkpt lat="52.255904" lon="5.667089">
        <ele>54.287775</ele>
        <time>2026-08-25T18:43:07.344Z</time>
      </trkpt>
      <trkpt lat="52.255416" lon="5.668268">
        <ele>53.841176</ele>
        <time>2026-08-25T18:43:22.137Z</time>
      </trkpt>
      <trkpt lat="52.255223" lon="5.668658">
        <ele>53.510837</ele>
        <time>2026-08-25T18:43:27.145Z</time>
      </trkpt>
      <trkpt lat="52.254525" lon="5.669874">
        <ele>52.412792</ele>
        <time>2026-08-25T18:43:44.495Z</time>
      </trkpt>
      <trkpt lat="52.254270" lon="5.670170">
        <ele>52.076179</ele>
        <time>2026-08-25T18:43:50.253Z</time>
      </trkpt>
      <trkpt lat="52.254033" lon="5.670373">
        <ele>51.933905</ele>
        <time>2026-08-25T18:43:55.346Z</time>
      </trkpt>
      <trkpt lat="52.253948" lon="5.670524">
        <ele>51.947478</ele>
        <time>2026-08-25T18:43:57.766Z</time>
      </trkpt>
      <trkpt lat="52.252948" lon="5.672683">
        <ele>52.120861</ele>
        <time>2026-08-25T18:44:32.977Z</time>
      </trkpt>
      <trkpt lat="52.252756" lon="5.672931">
        <ele>52.134188</ele>
        <time>2026-08-25T18:44:38.002Z</time>
      </trkpt>
      <trkpt lat="52.252488" lon="5.673850">
        <ele>52.168117</ele>
        <time>2026-08-25T18:44:50.149Z</time>
      </trkpt>
      <trkpt lat="52.252183" lon="5.674050">
        <ele>52.186011</ele>
        <time>2026-08-25T18:44:56.382Z</time>
      </trkpt>
      <trkpt lat="52.251813" lon="5.674445">
        <ele>52.210076</ele>
        <time>2026-08-25T18:45:04.972Z</time>
      </trkpt>
      <trkpt lat="52.251393" lon="5.675147">
        <ele>52.918862</ele>
        <time>2026-08-25T18:45:18.484Z</time>
      </trkpt>
      <trkpt lat="52.251187" lon="5.675516">
        <ele>53.312548</ele>
        <time>2026-08-25T18:45:26.442Z</time>
      </trkpt>
      <trkpt lat="52.251003" lon="5.675732">
        <ele>53.604330</ele>
        <time>2026-08-25T18:45:32.818Z</time>
      </trkpt>
      <trkpt lat="52.250169" lon="5.676711">
        <ele>54.680069</ele>
        <time>2026-08-25T18:46:02.464Z</time>
      </trkpt>
      <trkpt lat="52.249735" lon="5.677028">
        <ele>54.912446</ele>
        <time>2026-08-25T18:46:14.351Z</time>
      </trkpt>
      <trkpt lat="52.249023" lon="5.677328">
        <ele>55.271854</ele>
        <time>2026-08-25T18:46:29.079Z</time>
      </trkpt>
      <trkpt lat="52.248515" lon="5.677523">
        <ele>54.991935</ele>
        <time>2026-08-25T18:46:38.356Z</time>
      </trkpt>
      <trkpt lat="52.248537" lon="5.677487">
        <ele>54.938541</ele>
        <time>2026-08-25T18:46:38.888Z</time>
      </trkpt>
      <trkpt lat="52.247900" lon="5.677634">
        <ele>53.835518</ele>
        <time>2026-08-25T18:46:49.704Z</time>
      </trkpt>
      <trkpt lat="52.247696" lon="5.677763">
        <ele>53.460448</ele>
        <time>2026-08-25T18:46:53.272Z</time>
      </trkpt>
      <trkpt lat="52.246336" lon="5.678846">
        <ele>49.641784</ele>
        <time>2026-08-25T18:47:16.829Z</time>
      </trkpt>
      <trkpt lat="52.245887" lon="5.678980">
        <ele>48.202003</ele>
        <time>2026-08-25T18:47:23.550Z</time>
      </trkpt>
      <trkpt lat="52.245632" lon="5.679100">
        <ele>47.364906</ele>
        <time>2026-08-25T18:47:27.415Z</time>
      </trkpt>
      <trkpt lat="52.245530" lon="5.679175">
        <ele>47.012052</ele>
        <time>2026-08-25T18:47:29.035Z</time>
      </trkpt>
      <trkpt lat="52.245257" lon="5.679413">
        <ele>46.037277</ele>
        <time>2026-08-25T18:47:33.541Z</time>
      </trkpt>
      <trkpt lat="52.245044" lon="5.679449">
        <ele>45.363318</ele>
        <time>2026-08-25T18:47:36.655Z</time>
      </trkpt>
      <trkpt lat="52.244731" lon="5.679702">
        <ele>44.264161</ele>
        <time>2026-08-25T18:47:41.777Z</time>
      </trkpt>
      <trkpt lat="52.244141" lon="5.680067">
        <ele>42.278487</ele>
        <time>2026-08-25T18:47:51.259Z</time>
      </trkpt>
      <trkpt lat="52.243870" lon="5.680200">
        <ele>41.387885</ele>
        <time>2026-08-25T18:47:55.667Z</time>
      </trkpt>
      <trkpt lat="52.243479" lon="5.680510">
        <ele>40.408460</ele>
        <time>2026-08-25T18:48:02.567Z</time>
      </trkpt>
      <trkpt lat="52.243179" lon="5.680826">
        <ele>39.735005</ele>
        <time>2026-08-25T18:48:08.357Z</time>
      </trkpt>
      <trkpt lat="52.242873" lon="5.681075">
        <ele>39.090045</ele>
        <time>2026-08-25T18:48:13.962Z</time>
      </trkpt>
      <trkpt lat="52.242602" lon="5.681186">
        <ele>38.562967</ele>
        <time>2026-08-25T18:48:18.517Z</time>
      </trkpt>
      <trkpt lat="52.242153" lon="5.681294">
        <ele>37.706787</ele>
        <time>2026-08-25T18:48:25.975Z</time>
      </trkpt>
      <trkpt lat="52.241671" lon="5.681412">
        <ele>37.045498</ele>
        <time>2026-08-25T18:48:34.200Z</time>
      </trkpt>
      <trkpt lat="52.241341" lon="5.682037">
        <ele>36.396285</ele>
        <time>2026-08-25T18:48:42.896Z</time>
      </trkpt>
      <trkpt lat="52.241134" lon="5.682441">
        <ele>35.981882</ele>
        <time>2026-08-25T18:48:52.756Z</time>
      </trkpt>
      <trkpt lat="52.240710" lon="5.683447">
        <ele>35.165571</ele>
        <time>2026-08-25T18:49:15.836Z</time>
      </trkpt>
      <trkpt lat="52.240621" lon="5.683811">
        <ele>35.025441</ele>
        <time>2026-08-25T18:49:23.284Z</time>
      </trkpt>
      <trkpt lat="52.240593" lon="5.684028">
        <ele>34.946155</ele>
        <time>2026-08-25T18:49:27.492Z</time>
      </trkpt>
      <trkpt lat="52.240568" lon="5.684266">
        <ele>34.859821</ele>
        <time>2026-08-25T18:49:30.103Z</time>
      </trkpt>
      <trkpt lat="52.240454" lon="5.685863">
        <ele>34.284987</ele>
        <time>2026-08-25T18:49:48.443Z</time>
      </trkpt>
      <trkpt lat="52.240500" lon="5.688337">
        <ele>34.840039</ele>
        <time>2026-08-25T18:50:21.914Z</time>
      </trkpt>
      <trkpt lat="52.240480" lon="5.688670">
        <ele>34.926544</ele>
        <time>2026-08-25T18:50:26.613Z</time>
      </trkpt>
      <trkpt lat="52.240493" lon="5.689188">
        <ele>35.041184</ele>
        <time>2026-08-25T18:50:33.790Z</time>
      </trkpt>
      <trkpt lat="52.240482" lon="5.689774">
        <ele>35.147844</ele>
        <time>2026-08-25T18:50:41.698Z</time>
      </trkpt>
      <trkpt lat="52.240400" lon="5.690536">
        <ele>35.288597</ele>
        <time>2026-08-25T18:50:51.804Z</time>
      </trkpt>
      <trkpt lat="52.240009" lon="5.692618">
        <ele>35.759185</ele>
        <time>2026-08-25T18:51:19.057Z</time>
      </trkpt>
      <trkpt lat="52.239910" lon="5.693018">
        <ele>35.875283</ele>
        <time>2026-08-25T18:51:24.672Z</time>
      </trkpt>
      <trkpt lat="52.239888" lon="5.693105">
        <ele>35.900612</ele>
        <time>2026-08-25T18:51:25.903Z</time>
      </trkpt>
      <trkpt lat="52.239824" lon="5.693490">
        <ele>36.007964</ele>
        <time>2026-08-25T18:51:31.194Z</time>
      </trkpt>
      <trkpt lat="52.240059" lon="5.693177">
        <ele>36.141226</ele>
        <time>2026-08-25T18:51:43.101Z</time>
      </trkpt>
      <trkpt lat="52.240134" lon="5.693103">
        <ele>36.179733</ele>
        <time>2026-08-25T18:51:46.588Z</time>
      </trkpt>
      <trkpt lat="52.240428" lon="5.692818">
        <ele>36.350221</ele>
        <time>2026-08-25T18:52:00.236Z</time>
      </trkpt>
      <trkpt lat="52.240642" lon="5.692677">
        <ele>36.655455</ele>
        <time>2026-08-25T18:52:09.657Z</time>
      </trkpt>
      <trkpt lat="52.240687" lon="5.692650">
        <ele>36.718868</ele>
        <time>2026-08-25T18:52:11.658Z</time>
      </trkpt>
      <trkpt lat="52.241601" lon="5.692266">
        <ele>37.967205</ele>
        <time>2026-08-25T18:52:52.000Z</time>
      </trkpt>
      <trkpt lat="52.242431" lon="5.691838">
        <ele>39.307068</ele>
        <time>2026-08-25T18:53:31.368Z</time>
      </trkpt>
      <trkpt lat="52.243961" lon="5.691009">
        <ele>42.356315</ele>
        <time>2026-08-25T18:54:45.865Z</time>
      </trkpt>
      <trkpt lat="52.244205" lon="5.690864">
        <ele>42.771542</ele>
        <time>2026-08-25T18:54:57.421Z</time>
      </trkpt>
      <trkpt lat="52.245583" lon="5.690106">
        <ele>45.092030</ele>
        <time>2026-08-25T18:56:00.964Z</time>
      </trkpt>
      <trkpt lat="52.247756" lon="5.688873">
        <ele>48.730474</ele>
        <time>2026-08-25T18:57:41.526Z</time>
      </trkpt>
      <trkpt lat="52.251455" lon="5.686817">
        <ele>55.649211</ele>
        <time>2026-08-25T19:00:42.639Z</time>
      </trkpt>
      <trkpt lat="52.253314" lon="5.685755">
        <ele>56.422869</ele>
        <time>2026-08-25T19:01:56.721Z</time>
      </trkpt>
      <trkpt lat="52.253782" lon="5.685498">
        <ele>56.316965</ele>
        <time>2026-08-25T19:02:14.301Z</time>
      </trkpt>
      <trkpt lat="52.256038" lon="5.684158">
        <ele>55.091683</ele>
        <time>2026-08-25T19:03:38.285Z</time>
      </trkpt>
      <trkpt lat="52.259113" lon="5.682503">
        <ele>56.843254</ele>
        <time>2026-08-25T19:05:47.786Z</time>
      </trkpt>
      <trkpt lat="52.259577" lon="5.682318">
        <ele>57.242042</ele>
        <time>2026-08-25T19:06:08.103Z</time>
      </trkpt>
      <trkpt lat="52.259892" lon="5.682239">
        <ele>57.510755</ele>
        <time>2026-08-25T19:06:21.565Z</time>
      </trkpt>
      <trkpt lat="52.260526" lon="5.681826">
        <ele>58.086257</ele>
        <time>2026-08-25T19:06:49.986Z</time>
      </trkpt>
      <trkpt lat="52.261472" lon="5.681352">
        <ele>58.196752</ele>
        <time>2026-08-25T19:07:27.553Z</time>
      </trkpt>
      <trkpt lat="52.261487" lon="5.681321">
        <ele>58.189577</ele>
        <time>2026-08-25T19:07:28.428Z</time>
      </trkpt>
      <trkpt lat="52.261542" lon="5.681209">
        <ele>58.163504</ele>
        <time>2026-08-25T19:07:31.590Z</time>
      </trkpt>
      <trkpt lat="52.261244" lon="5.679882">
        <ele>57.906852</ele>
        <time>2026-08-25T19:08:02.112Z</time>
      </trkpt>
      <trkpt lat="52.262655" lon="5.679567">
        <ele>57.375976</ele>
        <time>2026-08-25T19:08:52.321Z</time>
      </trkpt>
      <trkpt lat="52.262825" lon="5.679621">
        <ele>57.309432</ele>
        <time>2026-08-25T19:08:58.707Z</time>
      </trkpt>
      <trkpt lat="52.264142" lon="5.679275">
        <ele>57.207644</ele>
        <time>2026-08-25T19:09:49.938Z</time>
      </trkpt>
      <trkpt lat="52.264468" lon="5.679186">
        <ele>57.224133</ele>
        <time>2026-08-25T19:10:02.688Z</time>
      </trkpt>
      <trkpt lat="52.264730" lon="5.679156">
        <ele>57.237236</ele>
        <time>2026-08-25T19:10:12.669Z</time>
      </trkpt>
      <trkpt lat="52.264855" lon="5.680623">
        <ele>56.290851</ele>
        <time>2026-08-25T19:10:26.569Z</time>
      </trkpt>
      <trkpt lat="52.264796" lon="5.680652">
        <ele>56.199521</ele>
        <time>2026-08-25T19:10:27.530Z</time>
      </trkpt>
      <trkpt lat="52.264783" lon="5.680691">
        <ele>56.159233</ele>
        <time>2026-08-25T19:10:27.946Z</time>
      </trkpt>
      <trkpt lat="52.264806" lon="5.680866">
        <ele>55.996851</ele>
        <time>2026-08-25T19:10:29.627Z</time>
      </trkpt>
      <trkpt lat="52.264830" lon="5.681021">
        <ele>55.851803</ele>
        <time>2026-08-25T19:10:31.121Z</time>
      </trkpt>
      <trkpt lat="52.264956" lon="5.682741">
        <ele>54.191033</ele>
        <time>2026-08-25T19:10:47.034Z</time>
      </trkpt>
      <trkpt lat="52.264968" lon="5.683144">
        <ele>53.717454</ele>
        <time>2026-08-25T19:10:50.786Z</time>
      </trkpt>
      <trkpt lat="52.265152" lon="5.684898">
        <ele>51.628682</ele>
        <time>2026-08-25T19:11:07.753Z</time>
      </trkpt>
      <trkpt lat="52.265253" lon="5.685704">
        <ele>50.381086</ele>
        <time>2026-08-25T19:11:15.430Z</time>
      </trkpt>
      <trkpt lat="52.265316" lon="5.686226">
        <ele>49.383113</ele>
        <time>2026-08-25T19:11:20.143Z</time>
      </trkpt>
      <trkpt lat="52.265330" lon="5.686687">
        <ele>48.517352</ele>
        <time>2026-08-25T19:11:24.091Z</time>
      </trkpt>
      <trkpt lat="52.265420" lon="5.687209">
        <ele>47.500126</ele>
        <time>2026-08-25T19:11:28.658Z</time>
      </trkpt>
      <trkpt lat="52.265501" lon="5.688079">
        <ele>45.849497</ele>
        <time>2026-08-25T19:11:36.078Z</time>
      </trkpt>
      <trkpt lat="52.265607" lon="5.688886">
        <ele>44.559656</ele>
        <time>2026-08-25T19:11:43.176Z</time>
      </trkpt>
      <trkpt lat="52.265929" lon="5.691744">
        <ele>41.018758</ele>
        <time>2026-08-25T19:12:09.717Z</time>
      </trkpt>
      <trkpt lat="52.266245" lon="5.693132">
        <ele>40.646077</ele>
        <time>2026-08-25T19:12:27.656Z</time>
      </trkpt>
      <trkpt lat="52.266395" lon="5.693384">
        <ele>40.557612</ele>
        <time>2026-08-25T19:12:32.502Z</time>
      </trkpt>
      <trkpt lat="52.266441" lon="5.693524">
        <ele>40.517624</ele>
        <time>2026-08-25T19:12:34.685Z</time>
      </trkpt>
      <trkpt lat="52.266450" lon="5.693665">
        <ele>40.481949</ele>
        <time>2026-08-25T19:12:36.629Z</time>
      </trkpt>
      <trkpt lat="52.266560" lon="5.694047">
        <ele>40.176848</ele>
        <time>2026-08-25T19:12:41.908Z</time>
      </trkpt>
      <trkpt lat="52.266634" lon="5.694490">
        <ele>39.743577</ele>
        <time>2026-08-25T19:12:46.958Z</time>
      </trkpt>
      <trkpt lat="52.266765" lon="5.694834">
        <ele>39.361298</ele>
        <time>2026-08-25T19:12:51.086Z</time>
      </trkpt>
      <trkpt lat="52.266939" lon="5.695044">
        <ele>39.027797</ele>
        <time>2026-08-25T19:12:54.465Z</time>
      </trkpt>
      <trkpt lat="52.267015" lon="5.695211">
        <ele>38.831439</ele>
        <time>2026-08-25T19:12:56.406Z</time>
      </trkpt>
      <trkpt lat="52.267064" lon="5.695416">
        <ele>38.623789</ele>
        <time>2026-08-25T19:12:58.411Z</time>
      </trkpt>
      <trkpt lat="52.267091" lon="5.695681">
        <ele>38.370317</ele>
        <time>2026-08-25T19:13:00.835Z</time>
      </trkpt>
      <trkpt lat="52.267215" lon="5.696457">
        <ele>37.551430</ele>
        <time>2026-08-25T19:13:07.897Z</time>
      </trkpt>
      <trkpt lat="52.267289" lon="5.697163">
        <ele>36.191332</ele>
        <time>2026-08-25T19:13:14.044Z</time>
      </trkpt>
      <trkpt lat="52.267280" lon="5.697774">
        <ele>35.030809</ele>
        <time>2026-08-25T19:13:19.278Z</time>
      </trkpt>
      <trkpt lat="52.267234" lon="5.698106">
        <ele>34.384440</ele>
        <time>2026-08-25T19:13:22.218Z</time>
      </trkpt>
      <trkpt lat="52.267295" lon="5.698570">
        <ele>33.483281</ele>
        <time>2026-08-25T19:13:26.354Z</time>
      </trkpt>
      <trkpt lat="52.267314" lon="5.699391">
        <ele>31.959032</ele>
        <time>2026-08-25T19:13:33.481Z</time>
      </trkpt>
      <trkpt lat="52.267463" lon="5.701365">
        <ele>28.973206</ele>
        <time>2026-08-25T19:13:50.953Z</time>
      </trkpt>
      <trkpt lat="52.267517" lon="5.701597">
        <ele>28.600588</ele>
        <time>2026-08-25T19:13:53.242Z</time>
      </trkpt>
      <trkpt lat="52.267537" lon="5.701684">
        <ele>28.461073</ele>
        <time>2026-08-25T19:13:54.119Z</time>
      </trkpt>
      <trkpt lat="52.267582" lon="5.702570">
        <ele>27.484620</ele>
        <time>2026-08-25T19:14:02.729Z</time>
      </trkpt>
      <trkpt lat="52.267606" lon="5.704006">
        <ele>26.718231</ele>
        <time>2026-08-25T19:14:17.507Z</time>
      </trkpt>
      <trkpt lat="52.267557" lon="5.704043">
        <ele>26.671174</ele>
        <time>2026-08-25T19:14:18.448Z</time>
      </trkpt>
      <trkpt lat="52.267604" lon="5.704183">
        <ele>26.585984</ele>
        <time>2026-08-25T19:14:20.587Z</time>
      </trkpt>
      <trkpt lat="52.267671" lon="5.704178">
        <ele>26.527515</ele>
        <time>2026-08-25T19:14:21.660Z</time>
      </trkpt>
      <trkpt lat="52.267797" lon="5.704173">
        <ele>26.417640</ele>
        <time>2026-08-25T19:14:23.698Z</time>
      </trkpt>
      <trkpt lat="52.268196" lon="5.704185">
        <ele>26.103476</ele>
        <time>2026-08-25T19:14:30.052Z</time>
      </trkpt>
      <trkpt lat="52.268334" lon="5.704189">
        <ele>26.074673</ele>
        <time>2026-08-25T19:14:32.230Z</time>
      </trkpt>
      <trkpt lat="52.268594" lon="5.704197">
        <ele>26.020404</ele>
        <time>2026-08-25T19:14:36.334Z</time>
      </trkpt>
      <trkpt lat="52.269112" lon="5.704250">
        <ele>25.912091</ele>
        <time>2026-08-25T19:14:44.713Z</time>
      </trkpt>
      <trkpt lat="52.269532" lon="5.704305">
        <ele>25.824161</ele>
        <time>2026-08-25T19:14:51.892Z</time>
      </trkpt>
      <trkpt lat="52.269734" lon="5.704390">
        <ele>25.780630</ele>
        <time>2026-08-25T19:14:55.592Z</time>
      </trkpt>
      <trkpt lat="52.269890" lon="5.704251">
        <ele>25.743550</ele>
        <time>2026-08-25T19:14:59.152Z</time>
      </trkpt>
      <trkpt lat="52.270027" lon="5.704131">
        <ele>25.736042</ele>
        <time>2026-08-25T19:15:02.240Z</time>
      </trkpt>
      <trkpt lat="52.270167" lon="5.704009">
        <ele>25.732815</ele>
        <time>2026-08-25T19:15:05.361Z</time>
      </trkpt>
      <trkpt lat="52.270356" lon="5.703843">
        <ele>25.728451</ele>
        <time>2026-08-25T19:15:09.521Z</time>
      </trkpt>
      <trkpt lat="52.270567" lon="5.703706">
        <ele>25.723833</ele>
        <time>2026-08-25T19:15:13.942Z</time>
      </trkpt>
      <trkpt lat="52.270868" lon="5.703602">
        <ele>25.717575</ele>
        <time>2026-08-25T19:15:19.806Z</time>
      </trkpt>
      <trkpt lat="52.271355" lon="5.703551">
        <ele>25.707649</ele>
        <time>2026-08-25T19:15:28.874Z</time>
      </trkpt>
      <trkpt lat="52.273330" lon="5.703494">
        <ele>25.608854</ele>
        <time>2026-08-25T19:16:07.765Z</time>
      </trkpt>
      <trkpt lat="52.273548" lon="5.703622">
        <ele>25.594629</ele>
        <time>2026-08-25T19:16:12.517Z</time>
      </trkpt>
      <trkpt lat="52.273584" lon="5.703647">
        <ele>25.592049</ele>
        <time>2026-08-25T19:16:13.315Z</time>
      </trkpt>
      <trkpt lat="52.273785" lon="5.703719">
        <ele>25.578477</ele>
        <time>2026-08-25T19:16:17.364Z</time>
      </trkpt>
      <trkpt lat="52.275147" lon="5.703984">
        <ele>25.488009</ele>
        <time>2026-08-25T19:16:43.412Z</time>
      </trkpt>
      <trkpt lat="52.275962" lon="5.704092">
        <ele>25.436004</ele>
        <time>2026-08-25T19:16:58.696Z</time>
      </trkpt>
      <trkpt lat="52.276270" lon="5.704046">
        <ele>25.416375</ele>
        <time>2026-08-25T19:17:04.607Z</time>
      </trkpt>
      <trkpt lat="52.276593" lon="5.703891">
        <ele>25.395010</ele>
        <time>2026-08-25T19:17:11.077Z</time>
      </trkpt>
      <trkpt lat="52.277205" lon="5.703475">
        <ele>25.280868</ele>
        <time>2026-08-25T19:17:23.886Z</time>
      </trkpt>
      <trkpt lat="52.278269" lon="5.703103">
        <ele>24.935275</ele>
        <time>2026-08-25T19:17:43.968Z</time>
      </trkpt>
      <trkpt lat="52.278528" lon="5.703127">
        <ele>24.852879</ele>
        <time>2026-08-25T19:17:48.577Z</time>
      </trkpt>
      <trkpt lat="52.278665" lon="5.703162">
        <ele>24.808837</ele>
        <time>2026-08-25T19:17:51.015Z</time>
      </trkpt>
      <trkpt lat="52.278879" lon="5.703216">
        <ele>24.709871</ele>
        <time>2026-08-25T19:17:54.760Z</time>
      </trkpt>
      <trkpt lat="52.279392" lon="5.703388">
        <ele>24.459280</ele>
        <time>2026-08-25T19:18:03.746Z</time>
      </trkpt>
      <trkpt lat="52.280306" lon="5.703646">
        <ele>24.015441</ele>
        <time>2026-08-25T19:18:20.550Z</time>
      </trkpt>
      <trkpt lat="52.280358" lon="5.703350">
        <ele>23.937572</ele>
        <time>2026-08-25T19:18:24.058Z</time>
      </trkpt>
      <trkpt lat="52.280409" lon="5.703148">
        <ele>23.931018</ele>
        <time>2026-08-25T19:18:26.524Z</time>
      </trkpt>
      <trkpt lat="52.280466" lon="5.703036">
        <ele>23.926648</ele>
        <time>2026-08-25T19:18:28.202Z</time>
      </trkpt>
      <trkpt lat="52.280702" lon="5.702831">
        <ele>23.913546</ele>
        <time>2026-08-25T19:18:33.248Z</time>
      </trkpt>
      <trkpt lat="52.280762" lon="5.702735">
        <ele>23.909430</ele>
        <time>2026-08-25T19:18:34.827Z</time>
      </trkpt>
      <trkpt lat="52.280779" lon="5.702654">
        <ele>23.906862</ele>
        <time>2026-08-25T19:18:35.868Z</time>
      </trkpt>
      <trkpt lat="52.280949" lon="5.701329">
        <ele>23.866258</ele>
        <time>2026-08-25T19:18:51.887Z</time>
      </trkpt>
      <trkpt lat="52.281010" lon="5.700597">
        <ele>23.838970</ele>
        <time>2026-08-25T19:19:00.484Z</time>
      </trkpt>
      <trkpt lat="52.281158" lon="5.700046">
        <ele>23.807096</ele>
        <time>2026-08-25T19:19:07.621Z</time>
      </trkpt>
      <trkpt lat="52.281226" lon="5.699651">
        <ele>23.785362</ele>
        <time>2026-08-25T19:19:12.424Z</time>
      </trkpt>
      <trkpt lat="52.281213" lon="5.698920">
        <ele>23.746626</ele>
        <time>2026-08-25T19:19:20.886Z</time>
      </trkpt>
      <trkpt lat="52.281350" lon="5.698798">
        <ele>23.733119</ele>
        <time>2026-08-25T19:19:23.813Z</time>
      </trkpt>
      <trkpt lat="52.281401" lon="5.698748">
        <ele>23.727970</ele>
        <time>2026-08-25T19:19:24.922Z</time>
      </trkpt>
      <trkpt lat="52.281514" lon="5.698586">
        <ele>23.714957</ele>
        <time>2026-08-25T19:19:27.416Z</time>
      </trkpt>
      <trkpt lat="52.281590" lon="5.698406">
        <ele>23.703373</ele>
        <time>2026-08-25T19:19:29.645Z</time>
      </trkpt>
      <trkpt lat="52.281805" lon="5.697178">
        <ele>23.541936</ele>
        <time>2026-08-25T19:19:42.544Z</time>
      </trkpt>
      <trkpt lat="52.282015" lon="5.696293">
        <ele>23.412221</ele>
        <time>2026-08-25T19:19:52.090Z</time>
      </trkpt>
      <trkpt lat="52.282205" lon="5.695661">
        <ele>23.315992</ele>
        <time>2026-08-25T19:19:59.202Z</time>
      </trkpt>
      <trkpt lat="52.282363" lon="5.695276">
        <ele>23.278939</ele>
        <time>2026-08-25T19:20:03.889Z</time>
      </trkpt>
      <trkpt lat="52.282605" lon="5.694561">
        <ele>23.239475</ele>
        <time>2026-08-25T19:20:12.088Z</time>
      </trkpt>
      <trkpt lat="52.282779" lon="5.693931">
        <ele>23.206092</ele>
        <time>2026-08-25T19:20:19.098Z</time>
      </trkpt>
      <trkpt lat="52.283022" lon="5.693314">
        <ele>23.170652</ele>
        <time>2026-08-25T19:20:26.686Z</time>
      </trkpt>
      <trkpt lat="52.283422" lon="5.692430">
        <ele>23.371614</ele>
        <time>2026-08-25T19:20:38.927Z</time>
      </trkpt>
      <trkpt lat="52.284054" lon="5.690857">
        <ele>23.964487</ele>
        <time>2026-08-25T19:21:01.645Z</time>
      </trkpt>
      <trkpt lat="52.284466" lon="5.689961">
        <ele>24.526756</ele>
        <time>2026-08-25T19:21:15.653Z</time>
      </trkpt>
      <trkpt lat="52.284925" lon="5.689201">
        <ele>25.156368</ele>
        <time>2026-08-25T19:21:29.451Z</time>
      </trkpt>
      <trkpt lat="52.286054" lon="5.686592">
        <ele>27.838950</ele>
        <time>2026-08-25T19:22:14.327Z</time>
      </trkpt>
      <trkpt lat="52.286355" lon="5.685891">
        <ele>28.672325</ele>
        <time>2026-08-25T19:22:28.154Z</time>
      </trkpt>
      <trkpt lat="52.286781" lon="5.685154">
        <ele>29.981146</ele>
        <time>2026-08-25T19:22:45.372Z</time>
      </trkpt>
      <trkpt lat="52.286987" lon="5.684862">
        <ele>30.556477</ele>
        <time>2026-08-25T19:22:53.116Z</time>
      </trkpt>
      <trkpt lat="52.287728" lon="5.684008">
        <ele>32.466306</ele>
        <time>2026-08-25T19:23:17.447Z</time>
      </trkpt>
      <trkpt lat="52.288215" lon="5.683553">
        <ele>32.691393</ele>
        <time>2026-08-25T19:23:30.320Z</time>
      </trkpt>
      <trkpt lat="52.288250" lon="5.683181">
        <ele>32.783778</ele>
        <time>2026-08-25T19:23:35.084Z</time>
      </trkpt>
      <trkpt lat="52.288699" lon="5.680989">
        <ele>32.794695</ele>
        <time>2026-08-25T19:24:00.991Z</time>
      </trkpt>
      <trkpt lat="52.288912" lon="5.679962">
        <ele>32.157021</ele>
        <time>2026-08-25T19:24:11.962Z</time>
      </trkpt>
      <trkpt lat="52.289147" lon="5.678831">
        <ele>31.454119</ele>
        <time>2026-08-25T19:24:23.968Z</time>
      </trkpt>
      <trkpt lat="52.289439" lon="5.677424">
        <ele>30.452281</ele>
        <time>2026-08-25T19:24:39.227Z</time>
      </trkpt>
      <trkpt lat="52.289837" lon="5.675530">
        <ele>29.097213</ele>
        <time>2026-08-25T19:24:59.724Z</time>
      </trkpt>
      <trkpt lat="52.290120" lon="5.674201">
        <ele>28.136360</ele>
        <time>2026-08-25T19:25:13.838Z</time>
      </trkpt>
      <trkpt lat="52.290495" lon="5.672339">
        <ele>27.023944</ele>
        <time>2026-08-25T19:25:34.186Z</time>
      </trkpt>
      <trkpt lat="52.290713" lon="5.671288">
        <ele>26.521965</ele>
        <time>2026-08-25T19:25:46.225Z</time>
      </trkpt>
      <trkpt lat="52.290751" lon="5.671106">
        <ele>26.434978</ele>
        <time>2026-08-25T19:25:48.307Z</time>
      </trkpt>
      <trkpt lat="52.290914" lon="5.670319">
        <ele>26.072259</ele>
        <time>2026-08-25T19:25:57.259Z</time>
      </trkpt>
      <trkpt lat="52.291328" lon="5.668323">
        <ele>25.278313</ele>
        <time>2026-08-25T19:26:19.670Z</time>
      </trkpt>
      <trkpt lat="52.291611" lon="5.666964">
        <ele>25.116970</ele>
        <time>2026-08-25T19:26:35.532Z</time>
      </trkpt>
      <trkpt lat="52.291943" lon="5.665490">
        <ele>25.293366</ele>
        <time>2026-08-25T19:26:55.850Z</time>
      </trkpt>
      <trkpt lat="52.291956" lon="5.665443">
        <ele>25.299158</ele>
        <time>2026-08-25T19:26:56.543Z</time>
      </trkpt>
      <trkpt lat="52.291968" lon="5.665357">
        <ele>25.309064</ele>
        <time>2026-08-25T19:26:57.696Z</time>
      </trkpt>
      <trkpt lat="52.292183" lon="5.664248">
        <ele>25.365979</ele>
        <time>2026-08-25T19:27:12.737Z</time>
      </trkpt>
      <trkpt lat="52.292342" lon="5.663362">
        <ele>25.373677</ele>
        <time>2026-08-25T19:27:24.048Z</time>
      </trkpt>
      <trkpt lat="52.292355" lon="5.663198">
        <ele>25.375056</ele>
        <time>2026-08-25T19:27:25.955Z</time>
      </trkpt>
      <trkpt lat="52.292329" lon="5.663027">
        <ele>25.376525</ele>
        <time>2026-08-25T19:27:27.955Z</time>
      </trkpt>
      <trkpt lat="52.291600" lon="5.660666">
        <ele>25.166058</ele>
        <time>2026-08-25T19:27:57.331Z</time>
      </trkpt>
      <trkpt lat="52.291572" lon="5.660561">
        <ele>25.151143</ele>
        <time>2026-08-25T19:27:58.659Z</time>
      </trkpt>
      <trkpt lat="52.291438" lon="5.660173">
        <ele>25.093122</ele>
        <time>2026-08-25T19:28:03.904Z</time>
      </trkpt>
      <trkpt lat="52.290451" lon="5.657198">
        <ele>25.007702</ele>
        <time>2026-08-25T19:28:43.575Z</time>
      </trkpt>
      <trkpt lat="52.290015" lon="5.656033">
        <ele>25.123944</ele>
        <time>2026-08-25T19:28:59.689Z</time>
      </trkpt>
      <trkpt lat="52.289961" lon="5.655811">
        <ele>25.148900</ele>
        <time>2026-08-25T19:29:02.632Z</time>
      </trkpt>
      <trkpt lat="52.289960" lon="5.655329">
        <ele>25.199249</ele>
        <time>2026-08-25T19:29:08.604Z</time>
      </trkpt>
      <trkpt lat="52.289992" lon="5.654318">
        <ele>25.304997</ele>
        <time>2026-08-25T19:29:21.428Z</time>
      </trkpt>
      <trkpt lat="52.290164" lon="5.649807">
        <ele>25.884485</ele>
        <time>2026-08-25T19:30:17.692Z</time>
      </trkpt>
      <trkpt lat="52.290272" lon="5.649276">
        <ele>25.901998</ele>
        <time>2026-08-25T19:30:24.255Z</time>
      </trkpt>
      <trkpt lat="52.290612" lon="5.648219">
        <ele>25.832817</ele>
        <time>2026-08-25T19:30:37.888Z</time>
      </trkpt>
      <trkpt lat="52.291149" lon="5.646507">
        <ele>25.191868</ele>
        <time>2026-08-25T19:30:59.158Z</time>
      </trkpt>
      <trkpt lat="52.291228" lon="5.646253">
        <ele>25.096940</ele>
        <time>2026-08-25T19:31:02.130Z</time>
      </trkpt>
      <trkpt lat="52.291343" lon="5.645883">
        <ele>24.958680</ele>
        <time>2026-08-25T19:31:06.373Z</time>
      </trkpt>
      <trkpt lat="52.291308" lon="5.645714">
        <ele>24.888126</ele>
        <time>2026-08-25T19:31:08.184Z</time>
      </trkpt>
      <trkpt lat="52.291275" lon="5.645680">
        <ele>24.862284</ele>
        <time>2026-08-25T19:31:08.988Z</time>
      </trkpt>
      <trkpt lat="52.291210" lon="5.645461">
        <ele>24.763642</ele>
        <time>2026-08-25T19:31:12.019Z</time>
      </trkpt>
      <trkpt lat="52.291040" lon="5.644831">
        <ele>24.484605</ele>
        <time>2026-08-25T19:31:20.651Z</time>
      </trkpt>
      <trkpt lat="52.290980" lon="5.644581">
        <ele>24.375777</ele>
        <time>2026-08-25T19:31:24.074Z</time>
      </trkpt>
      <trkpt lat="52.290905" lon="5.644277">
        <ele>24.242942</ele>
        <time>2026-08-25T19:31:28.292Z</time>
      </trkpt>
      <trkpt lat="52.290784" lon="5.643783">
        <ele>24.027301</ele>
        <time>2026-08-25T19:31:35.226Z</time>
      </trkpt>
      <trkpt lat="52.290560" lon="5.643744">
        <ele>23.878057</ele>
        <time>2026-08-25T19:31:38.774Z</time>
      </trkpt>
      <trkpt lat="52.290458" lon="5.643824">
        <ele>23.803106</ele>
        <time>2026-08-25T19:31:40.841Z</time>
      </trkpt>
      <trkpt lat="52.289835" lon="5.644818">
        <ele>24.504016</ele>
        <time>2026-08-25T19:32:00.033Z</time>
      </trkpt>
      <trkpt lat="52.289651" lon="5.645200">
        <ele>24.779670</ele>
        <time>2026-08-25T19:32:07.494Z</time>
      </trkpt>
      <trkpt lat="52.289514" lon="5.645319">
        <ele>24.923458</ele>
        <time>2026-08-25T19:32:11.441Z</time>
      </trkpt>
      <trkpt lat="52.289122" lon="5.646004">
        <ele>25.453390</ele>
        <time>2026-08-25T19:32:25.918Z</time>
      </trkpt>
      <trkpt lat="52.288793" lon="5.646477">
        <ele>25.833425</ele>
        <time>2026-08-25T19:32:36.741Z</time>
      </trkpt>
      <trkpt lat="52.288192" lon="5.647454">
        <ele>26.568611</ele>
        <time>2026-08-25T19:32:55.804Z</time>
      </trkpt>
      <trkpt lat="52.288027" lon="5.647970">
        <ele>26.877550</ele>
        <time>2026-08-25T19:33:03.313Z</time>
      </trkpt>
      <trkpt lat="52.287917" lon="5.648104">
        <ele>26.991552</ele>
        <time>2026-08-25T19:33:06.167Z</time>
      </trkpt>
      <trkpt lat="52.287767" lon="5.648176">
        <ele>27.061671</ele>
        <time>2026-08-25T19:33:09.426Z</time>
      </trkpt>
      <trkpt lat="52.287663" lon="5.648303">
        <ele>27.119896</ele>
        <time>2026-08-25T19:33:12.113Z</time>
      </trkpt>
      <trkpt lat="52.286280" lon="5.650435">
        <ele>27.912588</ele>
        <time>2026-08-25T19:33:51.744Z</time>
      </trkpt>
      <trkpt lat="52.285317" lon="5.652005">
        <ele>28.319011</ele>
        <time>2026-08-25T19:34:18.827Z</time>
      </trkpt>
      <trkpt lat="52.285235" lon="5.652174">
        <ele>28.361655</ele>
        <time>2026-08-25T19:34:21.461Z</time>
      </trkpt>
      <trkpt lat="52.285150" lon="5.652438">
        <ele>28.422448</ele>
        <time>2026-08-25T19:34:25.134Z</time>
      </trkpt>
      <trkpt lat="52.285058" lon="5.652563">
        <ele>28.462297</ele>
        <time>2026-08-25T19:34:27.547Z</time>
      </trkpt>
      <trkpt lat="52.284894" lon="5.652639">
        <ele>28.519080</ele>
        <time>2026-08-25T19:34:31.020Z</time>
      </trkpt>
      <trkpt lat="52.284710" lon="5.652862">
        <ele>28.595380</ele>
        <time>2026-08-25T19:34:35.744Z</time>
      </trkpt>
      <trkpt lat="52.284498" lon="5.653382">
        <ele>28.722720</ele>
        <time>2026-08-25T19:34:43.708Z</time>
      </trkpt>
      <trkpt lat="52.284246" lon="5.653683">
        <ele>28.826685</ele>
        <time>2026-08-25T19:34:50.274Z</time>
      </trkpt>
      <trkpt lat="52.283578" lon="5.654718">
        <ele>29.185645</ele>
        <time>2026-08-25T19:35:08.513Z</time>
      </trkpt>
      <trkpt lat="52.283503" lon="5.654530">
        <ele>29.243141</ele>
        <time>2026-08-25T19:35:11.319Z</time>
      </trkpt>
      <trkpt lat="52.283457" lon="5.654400">
        <ele>29.281613</ele>
        <time>2026-08-25T19:35:13.199Z</time>
      </trkpt>
      <trkpt lat="52.283378" lon="5.653957">
        <ele>29.399822</ele>
        <time>2026-08-25T19:35:19.001Z</time>
      </trkpt>
      <trkpt lat="52.283265" lon="5.653539">
        <ele>29.516892</ele>
        <time>2026-08-25T19:35:24.911Z</time>
      </trkpt>
      <trkpt lat="52.283231" lon="5.653423">
        <ele>29.549844</ele>
        <time>2026-08-25T19:35:26.629Z</time>
      </trkpt>
      <trkpt lat="52.282951" lon="5.652474">
        <ele>30.199462</ele>
        <time>2026-08-25T19:35:41.796Z</time>
      </trkpt>
      <trkpt lat="52.282733" lon="5.651806">
        <ele>30.931054</ele>
        <time>2026-08-25T19:35:54.746Z</time>
      </trkpt>
      <trkpt lat="52.282634" lon="5.651497">
        <ele>31.268113</ele>
        <time>2026-08-25T19:36:03.513Z</time>
      </trkpt>
      <trkpt lat="52.282308" lon="5.650491">
        <ele>32.368180</ele>
        <time>2026-08-25T19:36:32.125Z</time>
      </trkpt>
      <trkpt lat="52.282095" lon="5.649798">
        <ele>32.826728</ele>
        <time>2026-08-25T19:36:50.673Z</time>
      </trkpt>
      <trkpt lat="52.281857" lon="5.649062">
        <ele>33.237122</ele>
        <time>2026-08-25T19:37:08.375Z</time>
      </trkpt>
      <trkpt lat="52.281730" lon="5.648857">
        <ele>33.380948</ele>
        <time>2026-08-25T19:37:14.230Z</time>
      </trkpt>
      <trkpt lat="52.281644" lon="5.648764">
        <ele>33.464039</ele>
        <time>2026-08-25T19:37:17.581Z</time>
      </trkpt>
      <trkpt lat="52.281106" lon="5.648300">
        <ele>33.954207</ele>
        <time>2026-08-25T19:37:38.329Z</time>
      </trkpt>
      <trkpt lat="52.280623" lon="5.647913">
        <ele>33.999986</ele>
        <time>2026-08-25T19:37:56.474Z</time>
      </trkpt>
      <trkpt lat="52.280161" lon="5.647481">
        <ele>34.027755</ele>
        <time>2026-08-25T19:38:13.411Z</time>
      </trkpt>
      <trkpt lat="52.279907" lon="5.647237">
        <ele>34.043127</ele>
        <time>2026-08-25T19:38:22.652Z</time>
      </trkpt>
      <trkpt lat="52.279356" lon="5.646674">
        <ele>34.084717</ele>
        <time>2026-08-25T19:38:44.061Z</time>
      </trkpt>
      <trkpt lat="52.279130" lon="5.646387">
        <ele>34.111083</ele>
        <time>2026-08-25T19:38:53.478Z</time>
      </trkpt>
      <trkpt lat="52.279020" lon="5.646249">
        <ele>34.123858</ele>
        <time>2026-08-25T19:38:58.098Z</time>
      </trkpt>
      <trkpt lat="52.278874" lon="5.646061">
        <ele>34.140981</ele>
        <time>2026-08-25T19:39:04.325Z</time>
      </trkpt>
      <trkpt lat="52.278228" lon="5.645233">
        <ele>34.216611</ele>
        <time>2026-08-25T19:39:33.599Z</time>
      </trkpt>
      <trkpt lat="52.278580" lon="5.644338">
        <ele>33.876321</ele>
        <time>2026-08-25T19:39:54.843Z</time>
      </trkpt>
      <trkpt lat="52.278734" lon="5.643945">
        <ele>33.662741</ele>
        <time>2026-08-25T19:40:03.425Z</time>
      </trkpt>
      <trkpt lat="52.279211" lon="5.642910">
        <ele>33.069736</ele>
        <time>2026-08-25T19:40:26.170Z</time>
      </trkpt>
      <trkpt lat="52.279928" lon="5.641386">
        <ele>31.784074</ele>
        <time>2026-08-25T19:40:59.876Z</time>
      </trkpt>
      <trkpt lat="52.280840" lon="5.639506">
        <ele>30.065986</ele>
        <time>2026-08-25T19:41:45.391Z</time>
      </trkpt>
      <trkpt lat="52.281350" lon="5.638431">
        <ele>29.107302</ele>
        <time>2026-08-25T19:42:11.268Z</time>
      </trkpt>
      <trkpt lat="52.281532" lon="5.638040">
        <ele>28.761065</ele>
        <time>2026-08-25T19:42:20.327Z</time>
      </trkpt>
      <trkpt lat="52.281690" lon="5.637685">
        <ele>28.354017</ele>
        <time>2026-08-25T19:42:28.400Z</time>
      </trkpt>
      <trkpt lat="52.282136" lon="5.636686">
        <ele>27.120752</ele>
        <time>2026-08-25T19:42:51.191Z</time>
      </trkpt>
      <trkpt lat="52.282809" lon="5.635276">
        <ele>25.265987</ele>
        <time>2026-08-25T19:43:21.529Z</time>
      </trkpt>
      <trkpt lat="52.284085" lon="5.632524">
        <ele>21.606595</ele>
        <time>2026-08-25T19:44:19.719Z</time>
      </trkpt>
      <trkpt lat="52.284253" lon="5.632159">
        <ele>21.255819</ele>
        <time>2026-08-25T19:44:27.596Z</time>
      </trkpt>
      <trkpt lat="52.285021" lon="5.630466">
        <ele>19.988573</ele>
        <time>2026-08-25T19:45:05.715Z</time>
      </trkpt>
      <trkpt lat="52.285530" lon="5.629389">
        <ele>19.802978</ele>
        <time>2026-08-25T19:45:32.020Z</time>
      </trkpt>
      <trkpt lat="52.285690" lon="5.629050">
        <ele>19.744589</ele>
        <time>2026-08-25T19:45:40.497Z</time>
      </trkpt>
      <trkpt lat="52.285725" lon="5.628997">
        <ele>19.733954</ele>
        <time>2026-08-25T19:45:41.458Z</time>
      </trkpt>
      <trkpt lat="52.286046" lon="5.628298">
        <ele>19.523682</ele>
        <time>2026-08-25T19:45:51.731Z</time>
      </trkpt>
      <trkpt lat="52.286296" lon="5.627662">
        <ele>19.227826</ele>
        <time>2026-08-25T19:46:00.188Z</time>
      </trkpt>
      <trkpt lat="52.286571" lon="5.626628">
        <ele>18.786582</ele>
        <time>2026-08-25T19:46:12.166Z</time>
      </trkpt>
      <trkpt lat="52.286632" lon="5.626590">
        <ele>18.744820</ele>
        <time>2026-08-25T19:46:13.262Z</time>
      </trkpt>
      <trkpt lat="52.286926" lon="5.626538">
        <ele>18.555635</ele>
        <time>2026-08-25T19:46:18.115Z</time>
      </trkpt>
      <trkpt lat="52.287009" lon="5.626419">
        <ele>18.481848</ele>
        <time>2026-08-25T19:46:19.932Z</time>
      </trkpt>
      <trkpt lat="52.287066" lon="5.626207">
        <ele>18.380920</ele>
        <time>2026-08-25T19:46:22.257Z</time>
      </trkpt>
      <trkpt lat="52.287077" lon="5.626068">
        <ele>18.319834</ele>
        <time>2026-08-25T19:46:23.659Z</time>
      </trkpt>
      <trkpt lat="52.287033" lon="5.625929">
        <ele>18.251621</ele>
        <time>2026-08-25T19:46:25.269Z</time>
      </trkpt>
      <trkpt lat="52.286978" lon="5.625883">
        <ele>18.207603</ele>
        <time>2026-08-25T19:46:26.298Z</time>
      </trkpt>
      <trkpt lat="52.286895" lon="5.625971">
        <ele>18.137118</ele>
        <time>2026-08-25T19:46:27.784Z</time>
      </trkpt>
      <trkpt lat="52.286802" lon="5.625948">
        <ele>18.070102</ele>
        <time>2026-08-25T19:46:29.208Z</time>
      </trkpt>
      <trkpt lat="52.286763" lon="5.625901">
        <ele>18.035580</ele>
        <time>2026-08-25T19:46:29.946Z</time>
      </trkpt>
      <trkpt lat="52.286739" lon="5.625806">
        <ele>17.990784</ele>
        <time>2026-08-25T19:46:30.889Z</time>
      </trkpt>
      <trkpt lat="52.286755" lon="5.625567">
        <ele>17.885996</ele>
        <time>2026-08-25T19:46:33.131Z</time>
      </trkpt>
      <trkpt lat="52.286776" lon="5.625483">
        <ele>17.846446</ele>
        <time>2026-08-25T19:46:34.150Z</time>
      </trkpt>
      <trkpt lat="52.286823" lon="5.625262">
        <ele>17.744470</ele>
        <time>2026-08-25T19:46:36.762Z</time>
      </trkpt>
      <trkpt lat="52.286844" lon="5.625161">
        <ele>17.697977</ele>
        <time>2026-08-25T19:46:37.952Z</time>
      </trkpt>
      <trkpt lat="52.286872" lon="5.624939">
        <ele>17.599186</ele>
        <time>2026-08-25T19:46:40.100Z</time>
      </trkpt>
      <trkpt lat="52.286788" lon="5.624350">
        <ele>17.335592</ele>
        <time>2026-08-25T19:46:45.969Z</time>
      </trkpt>
      <trkpt lat="52.286793" lon="5.624079">
        <ele>17.227320</ele>
        <time>2026-08-25T19:46:48.651Z</time>
      </trkpt>
      <trkpt lat="52.286928" lon="5.623542">
        <ele>17.155225</ele>
        <time>2026-08-25T19:46:54.743Z</time>
      </trkpt>
      <trkpt lat="52.287087" lon="5.622941">
        <ele>17.073915</ele>
        <time>2026-08-25T19:47:01.947Z</time>
      </trkpt>
      <trkpt lat="52.287128" lon="5.622611">
        <ele>17.032101</ele>
        <time>2026-08-25T19:47:05.477Z</time>
      </trkpt>
      <trkpt lat="52.287259" lon="5.621561">
        <ele>16.899033</ele>
        <time>2026-08-25T19:47:16.151Z</time>
      </trkpt>
      <trkpt lat="52.287293" lon="5.621411">
        <ele>16.879169</ele>
        <time>2026-08-25T19:47:17.710Z</time>
      </trkpt>
      <trkpt lat="52.287314" lon="5.621294">
        <ele>16.861215</ele>
        <time>2026-08-25T19:47:18.905Z</time>
      </trkpt>
      <trkpt lat="52.287022" lon="5.621063">
        <ele>16.707648</ele>
        <time>2026-08-25T19:47:24.702Z</time>
      </trkpt>
      <trkpt lat="52.286984" lon="5.621034">
        <ele>16.687796</ele>
        <time>2026-08-25T19:47:25.435Z</time>
      </trkpt>
      <trkpt lat="52.286164" lon="5.619893">
        <ele>16.178029</ele>
        <time>2026-08-25T19:47:44.398Z</time>
      </trkpt>
      <trkpt lat="52.285835" lon="5.619742">
        <ele>16.016259</ele>
        <time>2026-08-25T19:47:50.643Z</time>
      </trkpt>
      <trkpt lat="52.285762" lon="5.619714">
        <ele>15.997186</ele>
        <time>2026-08-25T19:47:52.033Z</time>
      </trkpt>
      <trkpt lat="52.284394" lon="5.619180">
        <ele>15.653909</ele>
        <time>2026-08-25T19:48:18.588Z</time>
      </trkpt>
      <trkpt lat="52.284265" lon="5.619093">
        <ele>15.619849</ele>
        <time>2026-08-25T19:48:21.159Z</time>
      </trkpt>
      <trkpt lat="52.284069" lon="5.618781">
        <ele>15.508265</ele>
        <time>2026-08-25T19:48:26.100Z</time>
      </trkpt>
      <trkpt lat="52.283984" lon="5.618530">
        <ele>15.380463</ele>
        <time>2026-08-25T19:48:29.236Z</time>
      </trkpt>
      <trkpt lat="52.283876" lon="5.618458">
        <ele>15.295530</ele>
        <time>2026-08-25T19:48:31.276Z</time>
      </trkpt>
      <trkpt lat="52.283089" lon="5.617784">
        <ele>14.648553</ele>
        <time>2026-08-25T19:48:46.282Z</time>
      </trkpt>
      <trkpt lat="52.282942" lon="5.617682">
        <ele>14.532263</ele>
        <time>2026-08-25T19:48:48.949Z</time>
      </trkpt>
      <trkpt lat="52.281706" lon="5.616639">
        <ele>14.514183</ele>
        <time>2026-08-25T19:49:13.769Z</time>
      </trkpt>
      <trkpt lat="52.280607" lon="5.615765">
        <ele>14.872276</ele>
        <time>2026-08-25T19:49:44.652Z</time>
      </trkpt>
      <trkpt lat="52.280052" lon="5.615323">
        <ele>15.107251</ele>
        <time>2026-08-25T19:49:59.217Z</time>
      </trkpt>
      <trkpt lat="52.279705" lon="5.615038">
        <ele>15.255058</ele>
        <time>2026-08-25T19:50:06.475Z</time>
      </trkpt>
      <trkpt lat="52.280727" lon="5.614805">
        <ele>14.678099</ele>
        <time>2026-08-25T19:50:23.626Z</time>
      </trkpt>
      <trkpt lat="52.280899" lon="5.614750">
        <ele>14.497678</ele>
        <time>2026-08-25T19:50:26.405Z</time>
      </trkpt>
      <trkpt lat="52.282497" lon="5.614611">
        <ele>13.223962</ele>
        <time>2026-08-25T19:50:53.684Z</time>
      </trkpt>
      <trkpt lat="52.284106" lon="5.614435">
        <ele>12.656086</ele>
        <time>2026-08-25T19:51:23.629Z</time>
      </trkpt>
      <trkpt lat="52.285319" lon="5.614313">
        <ele>12.559464</ele>
        <time>2026-08-25T19:51:46.680Z</time>
      </trkpt>
      <trkpt lat="52.285594" lon="5.614289">
        <ele>12.569506</ele>
        <time>2026-08-25T19:51:52.064Z</time>
      </trkpt>
      <trkpt lat="52.285705" lon="5.614276">
        <ele>12.581494</ele>
        <time>2026-08-25T19:51:54.260Z</time>
      </trkpt>
      <trkpt lat="52.285957" lon="5.614248">
        <ele>12.608701</ele>
        <time>2026-08-25T19:51:59.315Z</time>
      </trkpt>
      <trkpt lat="52.286005" lon="5.614269">
        <ele>12.614053</ele>
        <time>2026-08-25T19:52:00.318Z</time>
      </trkpt>
      <trkpt lat="52.286250" lon="5.614531">
        <ele>12.645589</ele>
        <time>2026-08-25T19:52:06.218Z</time>
      </trkpt>
      <trkpt lat="52.286340" lon="5.614577">
        <ele>12.655747</ele>
        <time>2026-08-25T19:52:08.145Z</time>
      </trkpt>
      <trkpt lat="52.286543" lon="5.614530">
        <ele>12.677831</ele>
        <time>2026-08-25T19:52:12.327Z</time>
      </trkpt>
      <trkpt lat="52.286826" lon="5.614438">
        <ele>12.708912</ele>
        <time>2026-08-25T19:52:18.127Z</time>
      </trkpt>
      <trkpt lat="52.286991" lon="5.614340">
        <ele>12.727822</ele>
        <time>2026-08-25T19:52:21.616Z</time>
      </trkpt>
      <trkpt lat="52.287067" lon="5.614205">
        <ele>12.739911</ele>
        <time>2026-08-25T19:52:23.613Z</time>
      </trkpt>
      <trkpt lat="52.287160" lon="5.614142">
        <ele>12.728591</ele>
        <time>2026-08-25T19:52:25.345Z</time>
      </trkpt>
      <trkpt lat="52.287191" lon="5.614123">
        <ele>12.718713</ele>
        <time>2026-08-25T19:52:25.901Z</time>
      </trkpt>
      <trkpt lat="52.287072" lon="5.613953">
        <ele>12.671559</ele>
        <time>2026-08-25T19:52:28.865Z</time>
      </trkpt>
      <trkpt lat="52.286946" lon="5.613772">
        <ele>12.621511</ele>
        <time>2026-08-25T19:52:31.961Z</time>
      </trkpt>
      <trkpt lat="52.286641" lon="5.613316">
        <ele>12.498185</ele>
        <time>2026-08-25T19:52:39.466Z</time>
      </trkpt>
      <trkpt lat="52.286186" lon="5.612525">
        <ele>12.300004</ele>
        <time>2026-08-25T19:52:51.301Z</time>
      </trkpt>
      <trkpt lat="52.285146" lon="5.610777">
        <ele>11.853545</ele>
        <time>2026-08-25T19:53:18.519Z</time>
      </trkpt>
      <trkpt lat="52.284899" lon="5.610301">
        <ele>11.739167</ele>
        <time>2026-08-25T19:53:25.646Z</time>
      </trkpt>
      <trkpt lat="52.284149" lon="5.608976">
        <ele>11.450967</ele>
        <time>2026-08-25T19:53:46.313Z</time>
      </trkpt>
      <trkpt lat="52.283549" lon="5.608007">
        <ele>11.239539</ele>
        <time>2026-08-25T19:54:01.692Z</time>
      </trkpt>
      <trkpt lat="52.283152" lon="5.607345">
        <ele>11.136973</ele>
        <time>2026-08-25T19:54:12.118Z</time>
      </trkpt>
      <trkpt lat="52.282781" lon="5.606622">
        <ele>11.039547</ele>
        <time>2026-08-25T19:54:22.899Z</time>
      </trkpt>
      <trkpt lat="52.282658" lon="5.606385">
        <ele>11.007460</ele>
        <time>2026-08-25T19:54:26.485Z</time>
      </trkpt>
      <trkpt lat="52.283555" lon="5.606644">
        <ele>10.894397</ele>
        <time>2026-08-25T19:54:43.857Z</time>
      </trkpt>
      <trkpt lat="52.283975" lon="5.606766">
        <ele>10.870180</ele>
        <time>2026-08-25T19:54:51.927Z</time>
      </trkpt>
      <trkpt lat="52.284612" lon="5.607080">
        <ele>10.832410</ele>
        <time>2026-08-25T19:55:04.403Z</time>
      </trkpt>
      <trkpt lat="52.285361" lon="5.607365">
        <ele>10.809849</ele>
        <time>2026-08-25T19:55:19.111Z</time>
      </trkpt>
      <trkpt lat="52.285433" lon="5.607393">
        <ele>10.809318</ele>
        <time>2026-08-25T19:55:20.584Z</time>
      </trkpt>
      <trkpt lat="52.286499" lon="5.607872">
        <ele>10.801390</ele>
        <time>2026-08-25T19:55:41.899Z</time>
      </trkpt>
      <trkpt lat="52.287236" lon="5.608204">
        <ele>10.856708</ele>
        <time>2026-08-25T19:55:56.584Z</time>
      </trkpt>
      <trkpt lat="52.287789" lon="5.608472">
        <ele>10.914018</ele>
        <time>2026-08-25T19:56:07.691Z</time>
      </trkpt>
      <trkpt lat="52.288190" lon="5.608668">
        <ele>10.955605</ele>
        <time>2026-08-25T19:56:15.990Z</time>
      </trkpt>
      <trkpt lat="52.288437" lon="5.608785">
        <ele>10.980197</ele>
        <time>2026-08-25T19:56:21.236Z</time>
      </trkpt>
      <trkpt lat="52.288664" lon="5.608677">
        <ele>10.994452</ele>
        <time>2026-08-25T19:56:26.291Z</time>
      </trkpt>
      <trkpt lat="52.288791" lon="5.608663">
        <ele>11.002126</ele>
        <time>2026-08-25T19:56:28.995Z</time>
      </trkpt>
      <trkpt lat="52.288917" lon="5.608656">
        <ele>11.009728</ele>
        <time>2026-08-25T19:56:31.651Z</time>
      </trkpt>
      <trkpt lat="52.289091" lon="5.608544">
        <ele>11.021002</ele>
        <time>2026-08-25T19:56:35.570Z</time>
      </trkpt>
      <trkpt lat="52.289113" lon="5.608484">
        <ele>11.023582</ele>
        <time>2026-08-25T19:56:36.340Z</time>
      </trkpt>
      <trkpt lat="52.289169" lon="5.608358">
        <ele>11.029326</ele>
        <time>2026-08-25T19:56:38.060Z</time>
      </trkpt>
      <trkpt lat="52.289362" lon="5.607645">
        <ele>11.058081</ele>
        <time>2026-08-25T19:56:46.520Z</time>
      </trkpt>
      <trkpt lat="52.289448" lon="5.607473">
        <ele>11.066274</ele>
        <time>2026-08-25T19:56:48.843Z</time>
      </trkpt>
      <trkpt lat="52.289836" lon="5.606883">
        <ele>10.952025</ele>
        <time>2026-08-25T19:56:57.447Z</time>
      </trkpt>
      <trkpt lat="52.290181" lon="5.606262">
        <ele>10.574030</ele>
        <time>2026-08-25T19:57:05.433Z</time>
      </trkpt>
      <trkpt lat="52.290162" lon="5.606247">
        <ele>10.558487</ele>
        <time>2026-08-25T19:57:05.796Z</time>
      </trkpt>
      <trkpt lat="52.289927" lon="5.605972">
        <ele>10.345600</ele>
        <time>2026-08-25T19:57:10.766Z</time>
      </trkpt>
      <trkpt lat="52.289849" lon="5.605770">
        <ele>10.237964</ele>
        <time>2026-08-25T19:57:13.255Z</time>
      </trkpt>
      <trkpt lat="52.289817" lon="5.605546">
        <ele>10.134318</ele>
        <time>2026-08-25T19:57:15.631Z</time>
      </trkpt>
      <trkpt lat="52.289839" lon="5.605374">
        <ele>10.055143</ele>
        <time>2026-08-25T19:57:17.451Z</time>
      </trkpt>
      <trkpt lat="52.289850" lon="5.605293">
        <ele>10.017757</ele>
        <time>2026-08-25T19:57:18.305Z</time>
      </trkpt>
      <trkpt lat="52.289863" lon="5.605122">
        <ele>9.940115</ele>
        <time>2026-08-25T19:57:20.078Z</time>
      </trkpt>
      <trkpt lat="52.289853" lon="5.605086">
        <ele>9.922300</ele>
        <time>2026-08-25T19:57:20.475Z</time>
      </trkpt>
      <trkpt lat="52.289485" lon="5.604753">
        <ele>9.670007</ele>
        <time>2026-08-25T19:57:27.536Z</time>
      </trkpt>
      <trkpt lat="52.288604" lon="5.603957">
        <ele>9.213457</ele>
        <time>2026-08-25T19:57:45.376Z</time>
      </trkpt>
      <trkpt lat="52.285031" lon="5.600856">
        <ele>9.008585</ele>
        <time>2026-08-25T19:59:03.589Z</time>
      </trkpt>
      <trkpt lat="52.283479" lon="5.599420">
        <ele>8.646654</ele>
        <time>2026-08-25T19:59:36.578Z</time>
      </trkpt>
      <trkpt lat="52.282803" lon="5.598746">
        <ele>8.705792</ele>
        <time>2026-08-25T19:59:51.487Z</time>
      </trkpt>
      <trkpt lat="52.281992" lon="5.597869">
        <ele>8.848695</ele>
        <time>2026-08-25T20:00:11.224Z</time>
      </trkpt>
      <trkpt lat="52.281868" lon="5.597735">
        <ele>8.870540</ele>
        <time>2026-08-25T20:00:14.360Z</time>
      </trkpt>
      <trkpt lat="52.281843" lon="5.597700">
        <ele>8.875377</ele>
        <time>2026-08-25T20:00:15.070Z</time>
      </trkpt>
      <trkpt lat="52.281696" lon="5.597546">
        <ele>8.982679</ele>
        <time>2026-08-25T20:00:18.772Z</time>
      </trkpt>
      <trkpt lat="52.281332" lon="5.597044">
        <ele>9.287261</ele>
        <time>2026-08-25T20:00:37.302Z</time>
      </trkpt>
      <trkpt lat="52.280980" lon="5.596682">
        <ele>9.553229</ele>
        <time>2026-08-25T20:00:53.848Z</time>
      </trkpt>
      <trkpt lat="52.280563" lon="5.596227">
        <ele>9.873879</ele>
        <time>2026-08-25T20:01:14.054Z</time>
      </trkpt>
      <trkpt lat="52.280361" lon="5.596030">
        <ele>10.024314</ele>
        <time>2026-08-25T20:01:23.703Z</time>
      </trkpt>
      <trkpt lat="52.280152" lon="5.595967">
        <ele>10.209305</ele>
        <time>2026-08-25T20:01:32.507Z</time>
      </trkpt>
      <trkpt lat="52.279632" lon="5.596023">
        <ele>10.665330</ele>
        <time>2026-08-25T20:01:54.812Z</time>
      </trkpt>
      <trkpt lat="52.279096" lon="5.596231">
        <ele>11.147408</ele>
        <time>2026-08-25T20:02:18.144Z</time>
      </trkpt>
      <trkpt lat="52.278597" lon="5.596424">
        <ele>11.596129</ele>
        <time>2026-08-25T20:02:38.568Z</time>
      </trkpt>
      <trkpt lat="52.278362" lon="5.595385">
        <ele>11.327579</ele>
        <time>2026-08-25T20:02:51.359Z</time>
      </trkpt>
      <trkpt lat="52.278264" lon="5.593752">
        <ele>10.919366</ele>
        <time>2026-08-25T20:03:08.785Z</time>
      </trkpt>
      <trkpt lat="52.278252" lon="5.593515">
        <ele>10.856092</ele>
        <time>2026-08-25T20:03:11.853Z</time>
      </trkpt>
      <trkpt lat="52.278191" lon="5.593476">
        <ele>10.817755</ele>
        <time>2026-08-25T20:03:13.020Z</time>
      </trkpt>
      <trkpt lat="52.278168" lon="5.593461">
        <ele>10.803262</ele>
        <time>2026-08-25T20:03:13.467Z</time>
      </trkpt>
      <trkpt lat="52.278000" lon="5.593211">
        <ele>10.670286</ele>
        <time>2026-08-25T20:03:17.519Z</time>
      </trkpt>
      <trkpt lat="52.277957" lon="5.593203">
        <ele>10.644956</ele>
        <time>2026-08-25T20:03:19.077Z</time>
      </trkpt>
      <trkpt lat="52.277772" lon="5.593088">
        <ele>10.529112</ele>
        <time>2026-08-25T20:03:22.636Z</time>
      </trkpt>
      <trkpt lat="52.277178" lon="5.592220">
        <ele>10.062765</ele>
        <time>2026-08-25T20:03:37.430Z</time>
      </trkpt>
      <trkpt lat="52.276936" lon="5.591906">
        <ele>9.881920</ele>
        <time>2026-08-25T20:03:43.185Z</time>
      </trkpt>
      <trkpt lat="52.276861" lon="5.591880">
        <ele>9.837048</ele>
        <time>2026-08-25T20:03:44.600Z</time>
      </trkpt>
      <trkpt lat="52.276634" lon="5.592139">
        <ele>9.760934</ele>
        <time>2026-08-25T20:03:49.749Z</time>
      </trkpt>
      <trkpt lat="52.276566" lon="5.592367">
        <ele>9.725125</ele>
        <time>2026-08-25T20:03:52.659Z</time>
      </trkpt>
      <trkpt lat="52.276232" lon="5.592584">
        <ele>9.642194</ele>
        <time>2026-08-25T20:03:59.482Z</time>
      </trkpt>
      <trkpt lat="52.275955" lon="5.592621">
        <ele>9.578068</ele>
        <time>2026-08-25T20:04:04.819Z</time>
      </trkpt>
      <trkpt lat="52.274222" lon="5.592529">
        <ele>9.572987</ele>
        <time>2026-08-25T20:04:39.037Z</time>
      </trkpt>
      <trkpt lat="52.274159" lon="5.592944">
        <ele>9.619143</ele>
        <time>2026-08-25T20:04:44.556Z</time>
      </trkpt>
      <trkpt lat="52.274074" lon="5.593450">
        <ele>9.675785</ele>
        <time>2026-08-25T20:04:51.442Z</time>
      </trkpt>
      <trkpt lat="52.274026" lon="5.593581">
        <ele>9.692268</ele>
        <time>2026-08-25T20:04:53.463Z</time>
      </trkpt>
      <trkpt lat="52.273866" lon="5.593722">
        <ele>9.738094</ele>
        <time>2026-08-25T20:04:57.441Z</time>
      </trkpt>
      <trkpt lat="52.273545" lon="5.595048">
        <ele>10.300319</ele>
        <time>2026-08-25T20:05:17.027Z</time>
      </trkpt>
      <trkpt lat="52.273438" lon="5.595354">
        <ele>10.439275</ele>
        <time>2026-08-25T20:05:21.915Z</time>
      </trkpt>
      <trkpt lat="52.273356" lon="5.595468">
        <ele>10.508642</ele>
        <time>2026-08-25T20:05:24.398Z</time>
      </trkpt>
      <trkpt lat="52.273299" lon="5.595619">
        <ele>10.578594</ele>
        <time>2026-08-25T20:05:26.910Z</time>
      </trkpt>
      <trkpt lat="52.273121" lon="5.595738">
        <ele>10.702512</ele>
        <time>2026-08-25T20:05:31.403Z</time>
      </trkpt>
      <trkpt lat="52.272589" lon="5.596857">
        <ele>11.272731</ele>
        <time>2026-08-25T20:05:52.136Z</time>
      </trkpt>
      <trkpt lat="52.272259" lon="5.597083">
        <ele>11.510205</ele>
        <time>2026-08-25T20:06:00.627Z</time>
      </trkpt>
      <trkpt lat="52.272080" lon="5.597270">
        <ele>11.651207</ele>
        <time>2026-08-25T20:06:05.537Z</time>
      </trkpt>
      <trkpt lat="52.271546" lon="5.598141">
        <ele>12.128464</ele>
        <time>2026-08-25T20:06:21.808Z</time>
      </trkpt>
      <trkpt lat="52.271478" lon="5.598109">
        <ele>12.161661</ele>
        <time>2026-08-25T20:06:23.288Z</time>
      </trkpt>
      <trkpt lat="52.271490" lon="5.598029">
        <ele>12.185306</ele>
        <time>2026-08-25T20:06:24.216Z</time>
      </trkpt>
      <trkpt lat="52.271387" lon="5.597980">
        <ele>12.235632</ele>
        <time>2026-08-25T20:06:26.819Z</time>
      </trkpt>
      <trkpt lat="52.271301" lon="5.598042">
        <ele>12.279728</ele>
        <time>2026-08-25T20:06:28.749Z</time>
      </trkpt>
      <trkpt lat="52.270974" lon="5.598095">
        <ele>12.433885</ele>
        <time>2026-08-25T20:06:35.433Z</time>
      </trkpt>
      <trkpt lat="52.270872" lon="5.598154">
        <ele>12.484645</ele>
        <time>2026-08-25T20:06:37.674Z</time>
      </trkpt>
      <trkpt lat="52.270001" lon="5.598836">
        <ele>12.940300</ele>
        <time>2026-08-25T20:06:58.532Z</time>
      </trkpt>
      <trkpt lat="52.269279" lon="5.599531">
        <ele>13.378972</ele>
        <time>2026-08-25T20:07:17.581Z</time>
      </trkpt>
      <trkpt lat="52.268240" lon="5.600466">
        <ele>13.848892</ele>
        <time>2026-08-25T20:07:42.510Z</time>
      </trkpt>
      <trkpt lat="52.268200" lon="5.600476">
        <ele>13.847653</ele>
        <time>2026-08-25T20:07:43.316Z</time>
      </trkpt>
      <trkpt lat="52.267741" lon="5.600275">
        <ele>13.833107</ele>
        <time>2026-08-25T20:07:52.565Z</time>
      </trkpt>
      <trkpt lat="52.267500" lon="5.600507">
        <ele>13.824545</ele>
        <time>2026-08-25T20:07:58.063Z</time>
      </trkpt>
      <trkpt lat="52.267410" lon="5.600642">
        <ele>13.820805</ele>
        <time>2026-08-25T20:08:00.423Z</time>
      </trkpt>
      <trkpt lat="52.267204" lon="5.601342">
        <ele>13.806255</ele>
        <time>2026-08-25T20:08:11.048Z</time>
      </trkpt>
      <trkpt lat="52.266906" lon="5.601701">
        <ele>13.743206</ele>
        <time>2026-08-25T20:08:19.232Z</time>
      </trkpt>
      <trkpt lat="52.266701" lon="5.601906">
        <ele>13.683410</ele>
        <time>2026-08-25T20:08:24.488Z</time>
      </trkpt>
      <trkpt lat="52.266604" lon="5.602003">
        <ele>13.655117</ele>
        <time>2026-08-25T20:08:26.980Z</time>
      </trkpt>
      <trkpt lat="52.266139" lon="5.601940">
        <ele>13.539031</ele>
        <time>2026-08-25T20:08:34.847Z</time>
      </trkpt>
      <trkpt lat="52.265927" lon="5.601998">
        <ele>13.485552</ele>
        <time>2026-08-25T20:08:38.389Z</time>
      </trkpt>
      <trkpt lat="52.265619" lon="5.602140">
        <ele>13.405932</ele>
        <time>2026-08-25T20:08:43.620Z</time>
      </trkpt>
      <trkpt lat="52.265578" lon="5.601873">
        <ele>13.364018</ele>
        <time>2026-08-25T20:08:47.430Z</time>
      </trkpt>
      <trkpt lat="52.265548" lon="5.601800">
        <ele>13.349357</ele>
        <time>2026-08-25T20:08:48.643Z</time>
      </trkpt>
      <trkpt lat="52.265459" lon="5.601719">
        <ele>13.316067</ele>
        <time>2026-08-25T20:08:50.948Z</time>
      </trkpt>
      <trkpt lat="52.265383" lon="5.601694">
        <ele>13.290734</ele>
        <time>2026-08-25T20:08:52.720Z</time>
      </trkpt>
      <trkpt lat="52.265162" lon="5.601614">
        <ele>13.216765</ele>
        <time>2026-08-25T20:08:57.829Z</time>
      </trkpt>
      <trkpt lat="52.264949" lon="5.601471">
        <ele>13.141515</ele>
        <time>2026-08-25T20:09:02.168Z</time>
      </trkpt>
      <trkpt lat="52.264157" lon="5.600820">
        <ele>12.851805</ele>
        <time>2026-08-25T20:09:18.250Z</time>
      </trkpt>
      <trkpt lat="52.263910" lon="5.600618">
        <ele>12.758902</ele>
        <time>2026-08-25T20:09:23.170Z</time>
      </trkpt>
      <trkpt lat="52.264304" lon="5.597918">
        <ele>11.931333</ele>
        <time>2026-08-25T20:09:53.574Z</time>
      </trkpt>
      <trkpt lat="52.264294" lon="5.597026">
        <ele>11.758538</ele>
        <time>2026-08-25T20:10:03.377Z</time>
      </trkpt>
      <trkpt lat="52.264588" lon="5.596666">
        <ele>11.653571</ele>
        <time>2026-08-25T20:10:16.536Z</time>
      </trkpt>
      <trkpt lat="52.265355" lon="5.595832">
        <ele>11.390346</ele>
        <time>2026-08-25T20:10:50.135Z</time>
      </trkpt>
      <trkpt lat="52.265924" lon="5.595010">
        <ele>11.439710</ele>
        <time>2026-08-25T20:11:18.462Z</time>
      </trkpt>
      <trkpt lat="52.266326" lon="5.594185">
        <ele>11.496689</ele>
        <time>2026-08-25T20:11:43.101Z</time>
      </trkpt>
      <trkpt lat="52.266734" lon="5.592784">
        <ele>11.304052</ele>
        <time>2026-08-25T20:12:18.721Z</time>
      </trkpt>
      <trkpt lat="52.266797" lon="5.592624">
        <ele>11.251023</ele>
        <time>2026-08-25T20:12:22.999Z</time>
      </trkpt>
      <trkpt lat="52.266899" lon="5.592517">
        <ele>11.195818</ele>
        <time>2026-08-25T20:12:27.395Z</time>
      </trkpt>
      <trkpt lat="52.267277" lon="5.592515">
        <ele>11.023660</ele>
        <time>2026-08-25T20:12:40.868Z</time>
      </trkpt>
      <trkpt lat="52.267887" lon="5.592298">
        <ele>10.739332</ele>
        <time>2026-08-25T20:13:02.575Z</time>
      </trkpt>
      <trkpt lat="52.267981" lon="5.592218">
        <ele>10.657986</ele>
        <time>2026-08-25T20:13:04.343Z</time>
      </trkpt>
      <trkpt lat="52.268075" lon="5.591995">
        <ele>10.484181</ele>
        <time>2026-08-25T20:13:07.068Z</time>
      </trkpt>
      <trkpt lat="52.268594" lon="5.588243">
        <ele>8.570778</ele>
        <time>2026-08-25T20:13:46.530Z</time>
      </trkpt>
      <trkpt lat="52.268767" lon="5.586941">
        <ele>8.298768</ele>
        <time>2026-08-25T20:14:02.885Z</time>
      </trkpt>
      <trkpt lat="52.268907" lon="5.585568">
        <ele>8.249379</ele>
        <time>2026-08-25T20:14:21.271Z</time>
      </trkpt>
      <trkpt lat="52.269497" lon="5.584079">
        <ele>8.282178</ele>
        <time>2026-08-25T20:14:42.087Z</time>
      </trkpt>
      <trkpt lat="52.269599" lon="5.583822">
        <ele>8.321783</ele>
        <time>2026-08-25T20:14:45.735Z</time>
      </trkpt>
      <trkpt lat="52.268762" lon="5.582690">
        <ele>8.662805</ele>
        <time>2026-08-25T20:15:08.114Z</time>
      </trkpt>
      <trkpt lat="52.268659" lon="5.582597">
        <ele>8.699742</ele>
        <time>2026-08-25T20:15:10.751Z</time>
      </trkpt>
      <trkpt lat="52.268546" lon="5.582531">
        <ele>8.737407</ele>
        <time>2026-08-25T20:15:13.512Z</time>
      </trkpt>
      <trkpt lat="52.267173" lon="5.582324">
        <ele>9.491976</ele>
        <time>2026-08-25T20:15:46.192Z</time>
      </trkpt>
      <trkpt lat="52.266884" lon="5.582281">
        <ele>9.674254</ele>
        <time>2026-08-25T20:15:52.991Z</time>
      </trkpt>
      <trkpt lat="52.266910" lon="5.582120">
        <ele>9.738260</ele>
        <time>2026-08-25T20:15:55.317Z</time>
      </trkpt>
      <trkpt lat="52.267388" lon="5.580340">
        <ele>9.579347</ele>
        <time>2026-08-25T20:16:19.505Z</time>
      </trkpt>
      <trkpt lat="52.267390" lon="5.580243">
        <ele>9.549968</ele>
        <time>2026-08-25T20:16:20.626Z</time>
      </trkpt>
      <trkpt lat="52.267345" lon="5.580131">
        <ele>9.509411</ele>
        <time>2026-08-25T20:16:22.177Z</time>
      </trkpt>
      <trkpt lat="52.266898" lon="5.579581">
        <ele>9.232634</ele>
        <time>2026-08-25T20:16:32.168Z</time>
      </trkpt>
      <trkpt lat="52.266472" lon="5.579058">
        <ele>8.773909</ele>
        <time>2026-08-25T20:16:41.145Z</time>
      </trkpt>
      <trkpt lat="52.266375" lon="5.578909">
        <ele>8.600776</ele>
        <time>2026-08-25T20:16:43.342Z</time>
      </trkpt>
      <trkpt lat="52.266340" lon="5.578803">
        <ele>8.504918</ele>
        <time>2026-08-25T20:16:44.554Z</time>
      </trkpt>
      <trkpt lat="52.266321" lon="5.578671">
        <ele>8.396996</ele>
        <time>2026-08-25T20:16:45.911Z</time>
      </trkpt>
      <trkpt lat="52.266325" lon="5.578558">
        <ele>8.306912</ele>
        <time>2026-08-25T20:16:47.061Z</time>
      </trkpt>
      <trkpt lat="52.265578" lon="5.578225">
        <ele>7.299960</ele>
        <time>2026-08-25T20:16:58.061Z</time>
      </trkpt>
      <trkpt lat="52.265469" lon="5.577988">
        <ele>7.064009</ele>
        <time>2026-08-25T20:17:00.709Z</time>
      </trkpt>
      <trkpt lat="52.265421" lon="5.577940">
        <ele>6.990824</ele>
        <time>2026-08-25T20:17:01.534Z</time>
      </trkpt>
      <trkpt lat="52.265342" lon="5.577910">
        <ele>6.885349</ele>
        <time>2026-08-25T20:17:02.743Z</time>
      </trkpt>
      <trkpt lat="52.265227" lon="5.577963">
        <ele>6.744647</ele>
        <time>2026-08-25T20:17:04.549Z</time>
      </trkpt>
      <trkpt lat="52.265177" lon="5.578036">
        <ele>6.722029</ele>
        <time>2026-08-25T20:17:05.561Z</time>
      </trkpt>
      <trkpt lat="52.264652" lon="5.577807">
        <ele>6.538731</ele>
        <time>2026-08-25T20:17:14.030Z</time>
      </trkpt>
      <trkpt lat="52.264451" lon="5.577671">
        <ele>6.465345</ele>
        <time>2026-08-25T20:17:17.541Z</time>
      </trkpt>
      <trkpt lat="52.264281" lon="5.577505">
        <ele>6.398539</ele>
        <time>2026-08-25T20:17:20.840Z</time>
      </trkpt>
      <trkpt lat="52.264075" lon="5.577246">
        <ele>6.310858</ele>
        <time>2026-08-25T20:17:25.190Z</time>
      </trkpt>
      <trkpt lat="52.262275" lon="5.574367">
        <ele>6.296447</ele>
        <time>2026-08-25T20:18:09.108Z</time>
      </trkpt>
      <trkpt lat="52.261949" lon="5.574003">
        <ele>6.320553</ele>
        <time>2026-08-25T20:18:16.222Z</time>
      </trkpt>
      <trkpt lat="52.261788" lon="5.573869">
        <ele>6.331585</ele>
        <time>2026-08-25T20:18:19.462Z</time>
      </trkpt>
      <trkpt lat="52.261438" lon="5.573667">
        <ele>6.354247</ele>
        <time>2026-08-25T20:18:26.102Z</time>
      </trkpt>
      <trkpt lat="52.260275" lon="5.573012">
        <ele>6.270054</ele>
        <time>2026-08-25T20:18:47.092Z</time>
      </trkpt>
      <trkpt lat="52.260289" lon="5.572925">
        <ele>6.258823</ele>
        <time>2026-08-25T20:18:48.010Z</time>
      </trkpt>
      <trkpt lat="52.260342" lon="5.572571">
        <ele>6.213325</ele>
        <time>2026-08-25T20:18:51.654Z</time>
      </trkpt>
      <trkpt lat="52.260442" lon="5.571871">
        <ele>6.123584</ele>
        <time>2026-08-25T20:18:58.815Z</time>
      </trkpt>
      <trkpt lat="52.260470" lon="5.571649">
        <ele>6.095286</ele>
        <time>2026-08-25T20:19:01.054Z</time>
      </trkpt>
      <trkpt lat="52.260565" lon="5.570949">
        <ele>5.990624</ele>
        <time>2026-08-25T20:19:08.086Z</time>
      </trkpt>
      <trkpt lat="52.260781" lon="5.569365">
        <ele>5.634656</ele>
        <time>2026-08-25T20:19:23.978Z</time>
      </trkpt>
      <trkpt lat="52.260882" lon="5.568770">
        <ele>5.499217</ele>
        <time>2026-08-25T20:19:30.124Z</time>
      </trkpt>
      <trkpt lat="52.262044" lon="5.560588">
        <ele>4.449654</ele>
        <time>2026-08-25T20:20:55.586Z</time>
      </trkpt>
      <trkpt lat="52.261342" lon="5.560159">
        <ele>4.248320</ele>
        <time>2026-08-25T20:21:11.913Z</time>
      </trkpt>
      <trkpt lat="52.261078" lon="5.559995">
        <ele>4.183246</ele>
        <time>2026-08-25T20:21:16.952Z</time>
      </trkpt>
      <trkpt lat="52.258117" lon="5.558166">
        <ele>3.721871</ele>
        <time>2026-08-25T20:22:16.751Z</time>
      </trkpt>
      <trkpt lat="52.255010" lon="5.556296">
        <ele>3.619678</ele>
        <time>2026-08-25T20:23:20.255Z</time>
      </trkpt>
      <trkpt lat="52.254881" lon="5.556219">
        <ele>3.612460</ele>
        <time>2026-08-25T20:23:22.795Z</time>
      </trkpt>
      <trkpt lat="52.255243" lon="5.554804">
        <ele>3.394758</ele>
        <time>2026-08-25T20:23:43.713Z</time>
      </trkpt>
      <trkpt lat="52.256048" lon="5.551373">
        <ele>2.867594</ele>
        <time>2026-08-25T20:24:34.256Z</time>
      </trkpt>
      <trkpt lat="52.256222" lon="5.550792">
        <ele>2.783276</ele>
        <time>2026-08-25T20:24:43.271Z</time>
      </trkpt>
      <trkpt lat="52.256980" lon="5.548508">
        <ele>2.452499</ele>
        <time>2026-08-25T20:25:19.197Z</time>
      </trkpt>
      <trkpt lat="52.257181" lon="5.547789">
        <ele>2.357834</ele>
        <time>2026-08-25T20:25:29.998Z</time>
      </trkpt>
      <trkpt lat="52.257250" lon="5.547500">
        <ele>2.326841</ele>
        <time>2026-08-25T20:25:34.256Z</time>
      </trkpt>
      <trkpt lat="52.257451" lon="5.546275">
        <ele>2.200129</ele>
        <time>2026-08-25T20:25:51.819Z</time>
      </trkpt>
      <trkpt lat="52.257688" lon="5.544798">
        <ele>2.050044</ele>
        <time>2026-08-25T20:26:13.380Z</time>
      </trkpt>
      <trkpt lat="52.258037" lon="5.542540">
        <ele>1.832564</ele>
        <time>2026-08-25T20:26:45.919Z</time>
      </trkpt>
      <trkpt lat="52.257940" lon="5.541890">
        <ele>1.703835</ele>
        <time>2026-08-25T20:26:55.035Z</time>
      </trkpt>
      <trkpt lat="52.257906" lon="5.541724">
        <ele>1.660992</ele>
        <time>2026-08-25T20:26:56.761Z</time>
      </trkpt>
      <trkpt lat="52.257655" lon="5.539479">
        <ele>1.102433</ele>
        <time>2026-08-25T20:27:18.920Z</time>
      </trkpt>
      <trkpt lat="52.257591" lon="5.538901">
        <ele>1.027411</ele>
        <time>2026-08-25T20:27:24.689Z</time>
      </trkpt>
      <trkpt lat="52.257583" lon="5.538816">
        <ele>1.017233</ele>
        <time>2026-08-25T20:27:25.547Z</time>
      </trkpt>
      <trkpt lat="52.257477" lon="5.538083">
        <ele>0.928094</ele>
        <time>2026-08-25T20:27:35.873Z</time>
      </trkpt>
      <trkpt lat="52.257357" lon="5.537864">
        <ele>0.893308</ele>
        <time>2026-08-25T20:27:39.943Z</time>
      </trkpt>
      <trkpt lat="52.255510" lon="5.537377">
        <ele>0.804476</ele>
        <time>2026-08-25T20:28:23.333Z</time>
      </trkpt>
      <trkpt lat="52.254861" lon="5.537264">
        <ele>0.840394</ele>
        <time>2026-08-25T20:28:38.784Z</time>
      </trkpt>
      <trkpt lat="52.254536" lon="5.537242">
        <ele>0.855036</ele>
        <time>2026-08-25T20:28:46.464Z</time>
      </trkpt>
      <trkpt lat="52.254015" lon="5.537266">
        <ele>0.877610</ele>
        <time>2026-08-25T20:28:58.735Z</time>
      </trkpt>
      <trkpt lat="52.253720" lon="5.537230">
        <ele>0.890423</ele>
        <time>2026-08-25T20:29:05.673Z</time>
      </trkpt>
      <trkpt lat="52.252839" lon="5.536954">
        <ele>0.934307</ele>
        <time>2026-08-25T20:29:26.571Z</time>
      </trkpt>
      <trkpt lat="52.251523" lon="5.536694">
        <ele>1.026192</ele>
        <time>2026-08-25T20:29:57.797Z</time>
      </trkpt>
      <trkpt lat="52.251534" lon="5.536604">
        <ele>1.030087</ele>
        <time>2026-08-25T20:29:58.876Z</time>
      </trkpt>
      <trkpt lat="52.251672" lon="5.536257">
        <ele>1.038331</ele>
        <time>2026-08-25T20:30:03.702Z</time>
      </trkpt>
      <trkpt lat="52.251996" lon="5.535444">
        <ele>0.894673</ele>
        <time>2026-08-25T20:30:14.812Z</time>
      </trkpt>
      <trkpt lat="52.252234" lon="5.534456">
        <ele>0.737445</ele>
        <time>2026-08-25T20:30:26.734Z</time>
      </trkpt>
      <trkpt lat="52.253116" lon="5.530603">
        <ele>-0.014192</ele>
        <time>2026-08-25T20:31:12.701Z</time>
      </trkpt>
      <trkpt lat="52.253566" lon="5.528747">
        <ele>-0.151124</ele>
        <time>2026-08-25T20:31:35.838Z</time>
      </trkpt>
      <trkpt lat="52.253744" lon="5.527893">
        <ele>-0.205772</ele>
        <time>2026-08-25T20:31:46.429Z</time>
      </trkpt>
      <trkpt lat="52.253942" lon="5.526719">
        <ele>-0.257666</ele>
        <time>2026-08-25T20:32:00.665Z</time>
      </trkpt>
      <trkpt lat="52.254051" lon="5.525766">
        <ele>-0.298981</ele>
        <time>2026-08-25T20:32:11.822Z</time>
      </trkpt>
      <trkpt lat="52.254196" lon="5.524046">
        <ele>-0.329722</ele>
        <time>2026-08-25T20:32:31.916Z</time>
      </trkpt>
      <trkpt lat="52.254236" lon="5.523264">
        <ele>-0.336307</ele>
        <time>2026-08-25T20:32:41.115Z</time>
      </trkpt>
      <trkpt lat="52.254213" lon="5.522595">
        <ele>-0.341930</ele>
        <time>2026-08-25T20:32:49.116Z</time>
      </trkpt>
      <trkpt lat="52.254260" lon="5.521926">
        <ele>-0.291095</ele>
        <time>2026-08-25T20:32:57.328Z</time>
      </trkpt>
      <trkpt lat="52.254215" lon="5.521655">
        <ele>-0.258490</ele>
        <time>2026-08-25T20:33:00.775Z</time>
      </trkpt>
      <trkpt lat="52.253991" lon="5.520833">
        <ele>-0.154012</ele>
        <time>2026-08-25T20:33:11.768Z</time>
      </trkpt>
      <trkpt lat="52.251570" lon="5.520521">
        <ele>0.390245</ele>
        <time>2026-08-25T20:34:31.443Z</time>
      </trkpt>
      <trkpt lat="52.251455" lon="5.520561">
        <ele>0.418578</ele>
        <time>2026-08-25T20:34:35.328Z</time>
      </trkpt>
      <trkpt lat="52.251426" lon="5.520674">
        <ele>0.438823</ele>
        <time>2026-08-25T20:34:37.782Z</time>
      </trkpt>
      <trkpt lat="52.251282" lon="5.521192">
        <ele>0.553944</ele>
        <time>2026-08-25T20:34:49.190Z</time>
      </trkpt>
      <trkpt lat="52.250883" lon="5.522546">
        <ele>0.858023</ele>
        <time>2026-08-25T20:35:19.312Z</time>
      </trkpt>
      <trkpt lat="52.250836" lon="5.522511">
        <ele>0.875096</ele>
        <time>2026-08-25T20:35:21.051Z</time>
      </trkpt>
      <trkpt lat="52.250833" lon="5.522617">
        <ele>0.896569</ele>
        <time>2026-08-25T20:35:22.440Z</time>
      </trkpt>
      <trkpt lat="52.250665" lon="5.523196">
        <ele>1.026433</ele>
        <time>2026-08-25T20:35:31.050Z</time>
      </trkpt>
      <trkpt lat="52.250459" lon="5.523918">
        <ele>1.224596</ele>
        <time>2026-08-25T20:35:41.781Z</time>
      </trkpt>
      <trkpt lat="52.250264" lon="5.524585">
        <ele>1.408477</ele>
        <time>2026-08-25T20:35:51.697Z</time>
      </trkpt>
      <trkpt lat="52.249560" lon="5.526997">
        <ele>1.827956</ele>
        <time>2026-08-25T20:36:24.594Z</time>
      </trkpt>
      <trkpt lat="52.247620" lon="5.533664">
        <ele>2.166184</ele>
        <time>2026-08-25T20:37:52.559Z</time>
      </trkpt>
      <trkpt lat="52.247611" lon="5.533792">
        <ele>2.169853</ele>
        <time>2026-08-25T20:37:54.048Z</time>
      </trkpt>
      <trkpt lat="52.247599" lon="5.533836">
        <ele>2.169591</ele>
        <time>2026-08-25T20:37:54.713Z</time>
      </trkpt>
      <trkpt lat="52.247626" lon="5.533964">
        <ele>2.162105</ele>
        <time>2026-08-25T20:37:56.620Z</time>
      </trkpt>
      <trkpt lat="52.247563" lon="5.533991">
        <ele>2.156222</ele>
        <time>2026-08-25T20:37:57.707Z</time>
      </trkpt>
      <trkpt lat="52.247437" lon="5.533560">
        <ele>2.129811</ele>
        <time>2026-08-25T20:38:02.599Z</time>
      </trkpt>
      <trkpt lat="52.247384" lon="5.533605">
        <ele>2.124416</ele>
        <time>2026-08-25T20:38:03.614Z</time>
      </trkpt>
      <trkpt lat="52.247328" lon="5.533649">
        <ele>2.118804</ele>
        <time>2026-08-25T20:38:05.029Z</time>
      </trkpt>
      <trkpt lat="52.247229" lon="5.533647">
        <ele>2.109862</ele>
        <time>2026-08-25T20:38:07.262Z</time>
      </trkpt>
      <trkpt lat="52.246615" lon="5.533202">
        <ele>2.049192</ele>
        <time>2026-08-25T20:38:22.490Z</time>
      </trkpt>
      <trkpt lat="52.245920" lon="5.532630">
        <ele>1.997383</ele>
        <time>2026-08-25T20:38:40.381Z</time>
      </trkpt>
      <trkpt lat="52.245047" lon="5.531851">
        <ele>1.964174</ele>
        <time>2026-08-25T20:39:03.502Z</time>
      </trkpt>
      <trkpt lat="52.244136" lon="5.530976">
        <ele>1.860984</ele>
        <time>2026-08-25T20:39:27.708Z</time>
      </trkpt>
      <trkpt lat="52.243592" lon="5.530454">
        <ele>1.765743</ele>
        <time>2026-08-25T20:39:41.952Z</time>
      </trkpt>
      <trkpt lat="52.243486" lon="5.530683">
        <ele>1.739210</ele>
        <time>2026-08-25T20:39:45.931Z</time>
      </trkpt>
      <trkpt lat="52.243433" lon="5.530863">
        <ele>1.720750</ele>
        <time>2026-08-25T20:39:48.696Z</time>
      </trkpt>
      <trkpt lat="52.243325" lon="5.531823">
        <ele>1.693282</ele>
        <time>2026-08-25T20:40:02.273Z</time>
      </trkpt>
      <trkpt lat="52.243100" lon="5.533330">
        <ele>1.744894</ele>
        <time>2026-08-25T20:40:24.345Z</time>
      </trkpt>
      <trkpt lat="52.242763" lon="5.534891">
        <ele>1.912296</ele>
        <time>2026-08-25T20:40:49.191Z</time>
      </trkpt>
      <trkpt lat="52.242508" lon="5.535702">
        <ele>2.075964</ele>
        <time>2026-08-25T20:41:03.062Z</time>
      </trkpt>
      <trkpt lat="52.241935" lon="5.537158">
        <ele>2.344515</ele>
        <time>2026-08-25T20:41:28.999Z</time>
      </trkpt>
      <trkpt lat="52.241505" lon="5.538209">
        <ele>2.458772</ele>
        <time>2026-08-25T20:41:47.161Z</time>
      </trkpt>
      <trkpt lat="52.241049" lon="5.539310">
        <ele>2.577082</ele>
        <time>2026-08-25T20:42:06.320Z</time>
      </trkpt>
      <trkpt lat="52.240896" lon="5.539810">
        <ele>2.619637</ele>
        <time>2026-08-25T20:42:14.346Z</time>
      </trkpt>
      <trkpt lat="52.240772" lon="5.540606">
        <ele>2.682169</ele>
        <time>2026-08-25T20:42:26.265Z</time>
      </trkpt>
      <trkpt lat="52.240629" lon="5.541933">
        <ele>2.784749</ele>
        <time>2026-08-25T20:42:46.206Z</time>
      </trkpt>
      <trkpt lat="52.240581" lon="5.543999">
        <ele>2.985798</ele>
        <time>2026-08-25T20:43:16.447Z</time>
      </trkpt>
      <trkpt lat="52.240465" lon="5.545190">
        <ele>3.095282</ele>
        <time>2026-08-25T20:43:33.947Z</time>
      </trkpt>
      <trkpt lat="52.240252" lon="5.546292">
        <ele>3.168749</ele>
        <time>2026-08-25T20:43:50.541Z</time>
      </trkpt>
      <trkpt lat="52.240207" lon="5.546521">
        <ele>3.184039</ele>
        <time>2026-08-25T20:43:54.015Z</time>
      </trkpt>
      <trkpt lat="52.240113" lon="5.546908">
        <ele>3.210507</ele>
        <time>2026-08-25T20:44:00.056Z</time>
      </trkpt>
      <trkpt lat="52.240045" lon="5.547039">
        <ele>3.221425</ele>
        <time>2026-08-25T20:44:02.546Z</time>
      </trkpt>
      <trkpt lat="52.239964" lon="5.547127">
        <ele>3.231525</ele>
        <time>2026-08-25T20:44:04.874Z</time>
      </trkpt>
      <trkpt lat="52.239875" lon="5.547167">
        <ele>3.241109</ele>
        <time>2026-08-25T20:44:07.076Z</time>
      </trkpt>
      <trkpt lat="52.239757" lon="5.547167">
        <ele>3.253360</ele>
        <time>2026-08-25T20:44:09.862Z</time>
      </trkpt>
      <trkpt lat="52.238798" lon="5.546938">
        <ele>3.420953</ele>
        <time>2026-08-25T20:44:32.372Z</time>
      </trkpt>
      <trkpt lat="52.238653" lon="5.546969">
        <ele>3.447662</ele>
        <time>2026-08-25T20:44:35.812Z</time>
      </trkpt>
      <trkpt lat="52.238564" lon="5.547038">
        <ele>3.465657</ele>
        <time>2026-08-25T20:44:38.131Z</time>
      </trkpt>
      <trkpt lat="52.238134" lon="5.547731">
        <ele>3.576002</ele>
        <time>2026-08-25T20:44:52.857Z</time>
      </trkpt>
      <trkpt lat="52.237720" lon="5.548140">
        <ele>3.726161</ele>
        <time>2026-08-25T20:45:05.356Z</time>
      </trkpt>
      <trkpt lat="52.237470" lon="5.548450">
        <ele>3.834034</ele>
        <time>2026-08-25T20:45:13.614Z</time>
      </trkpt>
      <trkpt lat="52.237055" lon="5.549190">
        <ele>4.045198</ele>
        <time>2026-08-25T20:45:29.412Z</time>
      </trkpt>
      <trkpt lat="52.236965" lon="5.549305">
        <ele>4.084470</ele>
        <time>2026-08-25T20:45:32.267Z</time>
      </trkpt>
      <trkpt lat="52.236780" lon="5.546670">
        <ele>3.968941</ele>
        <time>2026-08-25T20:45:58.863Z</time>
      </trkpt>
      <trkpt lat="52.236730" lon="5.546530">
        <ele>3.949643</ele>
        <time>2026-08-25T20:46:00.453Z</time>
      </trkpt>
      <trkpt lat="52.236600" lon="5.546350">
        <ele>3.916502</ele>
        <time>2026-08-25T20:46:03.209Z</time>
      </trkpt>
      <trkpt lat="52.236490" lon="5.546260">
        <ele>3.892579</ele>
        <time>2026-08-25T20:46:05.227Z</time>
      </trkpt>
      <trkpt lat="52.235990" lon="5.545990">
        <ele>3.957517</ele>
        <time>2026-08-25T20:46:14.226Z</time>
      </trkpt>
      <trkpt lat="52.235620" lon="5.545910">
        <ele>4.052505</ele>
        <time>2026-08-25T20:46:21.185Z</time>
      </trkpt>
      <trkpt lat="52.235430" lon="5.545800">
        <ele>4.103810</ele>
        <time>2026-08-25T20:46:25.114Z</time>
      </trkpt>
      <trkpt lat="52.234520" lon="5.544760">
        <ele>4.268350</ele>
        <time>2026-08-25T20:46:46.386Z</time>
      </trkpt>
      <trkpt lat="52.234360" lon="5.544420">
        <ele>4.215695</ele>
        <time>2026-08-25T20:46:50.977Z</time>
      </trkpt>
      <trkpt lat="52.234327" lon="5.544302">
        <ele>4.199765</ele>
        <time>2026-08-25T20:46:52.322Z</time>
      </trkpt>
      <trkpt lat="52.233790" lon="5.542390">
        <ele>3.936916</ele>
        <time>2026-08-25T20:47:12.756Z</time>
      </trkpt>
      <trkpt lat="52.233680" lon="5.542090">
        <ele>3.883341</ele>
        <time>2026-08-25T20:47:16.088Z</time>
      </trkpt>
      <trkpt lat="52.233060" lon="5.540730">
        <ele>3.623562</ele>
        <time>2026-08-25T20:47:32.958Z</time>
      </trkpt>
      <trkpt lat="52.232940" lon="5.540560">
        <ele>3.583814</ele>
        <time>2026-08-25T20:47:35.661Z</time>
      </trkpt>
      <trkpt lat="52.232923" lon="5.540465">
        <ele>3.568649</ele>
        <time>2026-08-25T20:47:36.704Z</time>
      </trkpt>
      <trkpt lat="52.232660" lon="5.540238">
        <ele>3.506960</ele>
        <time>2026-08-25T20:47:41.877Z</time>
      </trkpt>
      <trkpt lat="52.232537" lon="5.540050">
        <ele>3.499350</ele>
        <time>2026-08-25T20:47:44.850Z</time>
      </trkpt>
      <trkpt lat="52.232464" lon="5.539823">
        <ele>3.492258</ele>
        <time>2026-08-25T20:47:47.615Z</time>
      </trkpt>
      <trkpt lat="52.232252" lon="5.538857">
        <ele>3.463874</ele>
        <time>2026-08-25T20:47:58.389Z</time>
      </trkpt>
      <trkpt lat="52.232124" lon="5.538569">
        <ele>3.454031</ele>
        <time>2026-08-25T20:48:02.052Z</time>
      </trkpt>
      <trkpt lat="52.231921" lon="5.538224">
        <ele>3.440797</ele>
        <time>2026-08-25T20:48:06.965Z</time>
      </trkpt>
      <trkpt lat="52.231574" lon="5.537631">
        <ele>3.466825</ele>
        <time>2026-08-25T20:48:15.381Z</time>
      </trkpt>
      <trkpt lat="52.231157" lon="5.537257">
        <ele>3.545788</ele>
        <time>2026-08-25T20:48:23.361Z</time>
      </trkpt>
      <trkpt lat="52.230900" lon="5.537052">
        <ele>3.593260</ele>
        <time>2026-08-25T20:48:28.324Z</time>
      </trkpt>
      <trkpt lat="52.230800" lon="5.537014">
        <ele>3.610300</ele>
        <time>2026-08-25T20:48:30.164Z</time>
      </trkpt>
      <trkpt lat="52.230144" lon="5.536965">
        <ele>3.719289</ele>
        <time>2026-08-25T20:48:46.657Z</time>
      </trkpt>
      <trkpt lat="52.230048" lon="5.536982">
        <ele>3.749768</ele>
        <time>2026-08-25T20:48:49.160Z</time>
      </trkpt>
      <trkpt lat="52.229967" lon="5.537040">
        <ele>3.790110</ele>
        <time>2026-08-25T20:48:51.461Z</time>
      </trkpt>
      <trkpt lat="52.229910" lon="5.537210">
        <ele>3.844253</ele>
        <time>2026-08-25T20:48:54.520Z</time>
      </trkpt>
      <trkpt lat="52.229780" lon="5.538520">
        <ele>4.214995</ele>
        <time>2026-08-25T20:49:15.328Z</time>
      </trkpt>
      <trkpt lat="52.229670" lon="5.538640">
        <ele>4.275337</ele>
        <time>2026-08-25T20:49:18.686Z</time>
      </trkpt>
      <trkpt lat="52.229510" lon="5.538680">
        <ele>4.349166</ele>
        <time>2026-08-25T20:49:22.763Z</time>
      </trkpt>
      <trkpt lat="52.229360" lon="5.538610">
        <ele>4.420323</ele>
        <time>2026-08-25T20:49:26.662Z</time>
      </trkpt>
      <trkpt lat="52.228770" lon="5.537751">
        <ele>4.724664</ele>
        <time>2026-08-25T20:49:46.009Z</time>
      </trkpt>
      <trkpt lat="52.228626" lon="5.537609">
        <ele>4.782916</ele>
        <time>2026-08-25T20:49:50.095Z</time>
      </trkpt>
      <trkpt lat="52.228344" lon="5.537594">
        <ele>4.880614</ele>
        <time>2026-08-25T20:49:56.987Z</time>
      </trkpt>
      <trkpt lat="52.228240" lon="5.537673">
        <ele>4.920333</ele>
        <time>2026-08-25T20:49:59.810Z</time>
      </trkpt>
      <trkpt lat="52.228116" lon="5.537841">
        <ele>4.976128</ele>
        <time>2026-08-25T20:50:03.791Z</time>
      </trkpt>
      <trkpt lat="52.227294" lon="5.537789">
        <ele>5.218444</ele>
        <time>2026-08-25T20:50:24.595Z</time>
      </trkpt>
      <trkpt lat="52.226520" lon="5.537740">
        <ele>5.360944</ele>
        <time>2026-08-25T20:50:43.700Z</time>
      </trkpt>
      <trkpt lat="52.226230" lon="5.537640">
        <ele>5.415472</ele>
        <time>2026-08-25T20:50:50.577Z</time>
      </trkpt>
      <trkpt lat="52.225990" lon="5.537460">
        <ele>5.464062</ele>
        <time>2026-08-25T20:50:56.610Z</time>
      </trkpt>
      <trkpt lat="52.225630" lon="5.536860">
        <ele>5.487858</ele>
        <time>2026-08-25T20:51:08.275Z</time>
      </trkpt>
      <trkpt lat="52.225580" lon="5.536550">
        <ele>5.479528</ele>
        <time>2026-08-25T20:51:12.734Z</time>
      </trkpt>
      <trkpt lat="52.225572" lon="5.536351">
        <ele>5.474346</ele>
        <time>2026-08-25T20:51:15.516Z</time>
      </trkpt>
      <trkpt lat="52.225580" lon="5.536158">
        <ele>5.469320</ele>
        <time>2026-08-25T20:51:18.201Z</time>
      </trkpt>
      <trkpt lat="52.225693" lon="5.535298">
        <ele>5.446466</ele>
        <time>2026-08-25T20:51:30.551Z</time>
      </trkpt>
      <trkpt lat="52.225632" lon="5.534996">
        <ele>5.438203</ele>
        <time>2026-08-25T20:51:35.173Z</time>
      </trkpt>
      <trkpt lat="52.225482" lon="5.534620">
        <ele>5.426544</ele>
        <time>2026-08-25T20:51:41.755Z</time>
      </trkpt>
      <trkpt lat="52.225339" lon="5.534270">
        <ele>5.420504</ele>
        <time>2026-08-25T20:51:47.955Z</time>
      </trkpt>
      <trkpt lat="52.225090" lon="5.533572">
        <ele>5.410644</ele>
        <time>2026-08-25T20:51:57.702Z</time>
      </trkpt>
      <trkpt lat="52.224292" lon="5.530655">
        <ele>5.321860</ele>
        <time>2026-08-25T20:52:34.505Z</time>
      </trkpt>
      <trkpt lat="52.224206" lon="5.530263">
        <ele>5.302190</ele>
        <time>2026-08-25T20:52:39.319Z</time>
      </trkpt>
      <trkpt lat="52.224107" lon="5.529511">
        <ele>5.265855</ele>
        <time>2026-08-25T20:52:48.208Z</time>
      </trkpt>
      <trkpt lat="52.223944" lon="5.528237">
        <ele>5.056250</ele>
        <time>2026-08-25T20:53:03.208Z</time>
      </trkpt>
      <trkpt lat="52.223824" lon="5.527073">
        <ele>4.820615</ele>
        <time>2026-08-25T20:53:16.342Z</time>
      </trkpt>
      <trkpt lat="52.223789" lon="5.526735">
        <ele>4.752183</ele>
        <time>2026-08-25T20:53:20.926Z</time>
      </trkpt>
      <trkpt lat="52.223777" lon="5.526618">
        <ele>4.728501</ele>
        <time>2026-08-25T20:53:22.508Z</time>
      </trkpt>
      <trkpt lat="52.226833" lon="5.526164">
        <ele>3.136186</ele>
        <time>2026-08-25T20:54:17.062Z</time>
      </trkpt>
      <trkpt lat="52.227476" lon="5.526079">
        <ele>2.800569</ele>
        <time>2026-08-25T20:54:31.175Z</time>
      </trkpt>
      <trkpt lat="52.227742" lon="5.526035">
        <ele>2.682857</ele>
        <time>2026-08-25T20:54:37.020Z</time>
      </trkpt>
      <trkpt lat="52.227847" lon="5.525983">
        <ele>2.638367</ele>
        <time>2026-08-25T20:54:39.429Z</time>
      </trkpt>
      <trkpt lat="52.228868" lon="5.524561">
        <ele>2.094200</ele>
        <time>2026-08-25T20:55:08.980Z</time>
      </trkpt>
      <trkpt lat="52.229420" lon="5.523790">
        <ele>1.972167</ele>
        <time>2026-08-25T20:55:25.492Z</time>
      </trkpt>
      <trkpt lat="52.229490" lon="5.523650">
        <ele>1.961031</ele>
        <time>2026-08-25T20:55:28.037Z</time>
      </trkpt>
      <trkpt lat="52.229550" lon="5.523420">
        <ele>1.945626</ele>
        <time>2026-08-25T20:55:31.563Z</time>
      </trkpt>
      <trkpt lat="52.229653" lon="5.522570">
        <ele>1.892234</ele>
        <time>2026-08-25T20:55:43.807Z</time>
      </trkpt>
      <trkpt lat="52.229690" lon="5.522270">
        <ele>1.873377</ele>
        <time>2026-08-25T20:55:48.125Z</time>
      </trkpt>
      <trkpt lat="52.230418" lon="5.517794">
        <ele>1.580262</ele>
        <time>2026-08-25T20:56:43.242Z</time>
      </trkpt>
      <trkpt lat="52.230554" lon="5.516909">
        <ele>1.558091</ele>
        <time>2026-08-25T20:56:52.992Z</time>
      </trkpt>
      <trkpt lat="52.230729" lon="5.515019">
        <ele>1.443498</ele>
        <time>2026-08-25T20:57:13.329Z</time>
      </trkpt>
      <trkpt lat="52.230782" lon="5.514427">
        <ele>1.394183</ele>
        <time>2026-08-25T20:57:19.455Z</time>
      </trkpt>
      <trkpt lat="52.230869" lon="5.513402">
        <ele>1.308888</ele>
        <time>2026-08-25T20:57:29.752Z</time>
      </trkpt>
      <trkpt lat="52.230799" lon="5.511969">
        <ele>1.212069</ele>
        <time>2026-08-25T20:57:44.134Z</time>
      </trkpt>
      <trkpt lat="52.230587" lon="5.510816">
        <ele>1.132813</ele>
        <time>2026-08-25T20:57:56.604Z</time>
      </trkpt>
      <trkpt lat="52.230427" lon="5.509681">
        <ele>1.075574</ele>
        <time>2026-08-25T20:58:09.550Z</time>
      </trkpt>
      <trkpt lat="52.230435" lon="5.509191">
        <ele>1.056211</ele>
        <time>2026-08-25T20:58:14.746Z</time>
      </trkpt>
      <trkpt lat="52.230544" lon="5.508673">
        <ele>1.034574</ele>
        <time>2026-08-25T20:58:20.425Z</time>
      </trkpt>
      <trkpt lat="52.230605" lon="5.508566">
        <ele>1.028799</ele>
        <time>2026-08-25T20:58:21.915Z</time>
      </trkpt>
      <trkpt lat="52.230461" lon="5.507449">
        <ele>0.978945</ele>
        <time>2026-08-25T20:58:33.326Z</time>
      </trkpt>
      <trkpt lat="52.230236" lon="5.506417">
        <ele>0.894638</ele>
        <time>2026-08-25T20:58:44.116Z</time>
      </trkpt>
      <trkpt lat="52.230028" lon="5.505614">
        <ele>0.827538</ele>
        <time>2026-08-25T20:58:53.082Z</time>
      </trkpt>
      <trkpt lat="52.229859" lon="5.504963">
        <ele>0.773120</ele>
        <time>2026-08-25T20:59:00.607Z</time>
      </trkpt>
      <trkpt lat="52.227942" lon="5.502181">
        <ele>1.586120</ele>
        <time>2026-08-25T20:59:47.456Z</time>
      </trkpt>
      <trkpt lat="52.227735" lon="5.502005">
        <ele>1.735667</ele>
        <time>2026-08-25T20:59:52.269Z</time>
      </trkpt>
      <trkpt lat="52.227359" lon="5.501864">
        <ele>1.982867</ele>
        <time>2026-08-25T21:00:00.288Z</time>
      </trkpt>
      <trkpt lat="52.227142" lon="5.501637">
        <ele>2.148007</ele>
        <time>2026-08-25T21:00:05.756Z</time>
      </trkpt>
      <trkpt lat="52.226358" lon="5.503161">
        <ele>2.693667</ele>
        <time>2026-08-25T21:00:31.817Z</time>
      </trkpt>
      <trkpt lat="52.226042" lon="5.503747">
        <ele>2.885284</ele>
        <time>2026-08-25T21:00:40.100Z</time>
      </trkpt>
      <trkpt lat="52.225980" lon="5.503878">
        <ele>2.925915</ele>
        <time>2026-08-25T21:00:41.769Z</time>
      </trkpt>
      <trkpt lat="52.225890" lon="5.504199">
        <ele>3.012562</ele>
        <time>2026-08-25T21:00:45.292Z</time>
      </trkpt>
      <trkpt lat="52.225851" lon="5.504456">
        <ele>2.915519</ele>
        <time>2026-08-25T21:00:47.873Z</time>
      </trkpt>
      <trkpt lat="52.225809" lon="5.504743">
        <ele>2.779042</ele>
        <time>2026-08-25T21:00:50.695Z</time>
      </trkpt>
      <trkpt lat="52.225738" lon="5.505058">
        <ele>2.623799</ele>
        <time>2026-08-25T21:00:53.830Z</time>
      </trkpt>
      <trkpt lat="52.225220" lon="5.506380">
        <ele>1.897956</ele>
        <time>2026-08-25T21:01:07.984Z</time>
      </trkpt>
      <trkpt lat="52.225053" lon="5.506907">
        <ele>1.658869</ele>
        <time>2026-08-25T21:01:13.585Z</time>
      </trkpt>
      <trkpt lat="52.225008" lon="5.506828">
        <ele>1.653331</ele>
        <time>2026-08-25T21:01:14.750Z</time>
      </trkpt>
      <trkpt lat="52.224966" lon="5.506202">
        <ele>1.621005</ele>
        <time>2026-08-25T21:01:21.778Z</time>
      </trkpt>
      <trkpt lat="52.224910" lon="5.505953">
        <ele>1.607389</ele>
        <time>2026-08-25T21:01:24.839Z</time>
      </trkpt>
      <trkpt lat="52.224868" lon="5.505861">
        <ele>1.601499</ele>
        <time>2026-08-25T21:01:26.165Z</time>
      </trkpt>
      <trkpt lat="52.224514" lon="5.505272">
        <ele>1.559142</ele>
        <time>2026-08-25T21:01:35.995Z</time>
      </trkpt>
      <trkpt lat="52.224201" lon="5.504944">
        <ele>1.527973</ele>
        <time>2026-08-25T21:01:43.438Z</time>
      </trkpt>
      <trkpt lat="52.223922" lon="5.504513">
        <ele>1.595863</ele>
        <time>2026-08-25T21:01:51.471Z</time>
      </trkpt>
      <trkpt lat="52.223817" lon="5.504432">
        <ele>1.644201</ele>
        <time>2026-08-25T21:01:53.932Z</time>
      </trkpt>
      <trkpt lat="52.223688" lon="5.504391">
        <ele>1.698902</ele>
        <time>2026-08-25T21:01:56.706Z</time>
      </trkpt>
      <trkpt lat="52.223291" lon="5.504325">
        <ele>1.865000</ele>
        <time>2026-08-25T21:02:05.229Z</time>
      </trkpt>
      <trkpt lat="52.223107" lon="5.504255">
        <ele>1.943638</ele>
        <time>2026-08-25T21:02:09.273Z</time>
      </trkpt>
      <trkpt lat="52.222568" lon="5.504190">
        <ele>2.168597</ele>
        <time>2026-08-25T21:02:20.842Z</time>
      </trkpt>
      <trkpt lat="52.222445" lon="5.503992">
        <ele>2.240499</ele>
        <time>2026-08-25T21:02:24.491Z</time>
      </trkpt>
      <trkpt lat="52.221890" lon="5.503879">
        <ele>2.232608</ele>
        <time>2026-08-25T21:02:35.950Z</time>
      </trkpt>
      <trkpt lat="52.221822" lon="5.503865">
        <ele>2.228762</ele>
        <time>2026-08-25T21:02:37.312Z</time>
      </trkpt>
      <trkpt lat="52.221788" lon="5.503819">
        <ele>2.226284</ele>
        <time>2026-08-25T21:02:38.170Z</time>
      </trkpt>
      <trkpt lat="52.221771" lon="5.503697">
        <ele>2.221983</ele>
        <time>2026-08-25T21:02:39.670Z</time>
      </trkpt>
      <trkpt lat="52.222313" lon="5.502091">
        <ele>2.160267</ele>
        <time>2026-08-25T21:02:58.025Z</time>
      </trkpt>
      <trkpt lat="52.222361" lon="5.501947">
        <ele>2.160267</ele>
        <time>2026-08-25T21:02:59.613Z</time>
      </trkpt>
      <trkpt lat="52.223205" lon="5.502346">
        <ele>2.160267</ele>
        <time>2026-08-25T21:03:18.403Z</time>
      </trkpt>
    </trkseg>
  </trk>
</gpx>